<?xml version="1.0" encoding="UTF-8" standalone="no" ?>
<gpx xmlns="http://www.topografix.com/GPX/1/1" xmlns:xsi="http://www.w3.org/2001/XMLSchema-instance" xsi:schemaLocation="http://www.topografix.com/GPX/1/1 http://www.topografix.com/GPX/1/1/gpx.xsd" version="1.1" creator="VisuGPX - https://www.visugpx.com">
  <metadata>
    <name>Pierres Ratière et Martinet</name>
    <desc><![CDATA[Découvrir deux chaos granitiques bien cachés dans la forêt]]></desc>
  </metadata>
  <trk>
    <name><![CDATA[20181022173040-LBAPe]]></name>
    <trkseg>
      <trkpt lat="45.29353" lon="4.48086">
        <ele>1213.8</ele>
        <time>2018-10-15T07:58:32Z</time>
      </trkpt>
      <trkpt lat="45.29353" lon="4.48086">
        <ele>1213.8</ele>
        <time>2018-10-15T07:58:33Z</time>
      </trkpt>
      <trkpt lat="45.29353" lon="4.48086">
        <ele>1213.32</ele>
        <time>2018-10-15T07:58:50Z</time>
      </trkpt>
      <trkpt lat="45.29351" lon="4.4809">
        <ele>1214.28</ele>
        <time>2018-10-15T07:59:14Z</time>
      </trkpt>
      <trkpt lat="45.29347" lon="4.48096">
        <ele>1213.32</ele>
        <time>2018-10-15T07:59:21Z</time>
      </trkpt>
      <trkpt lat="45.29344" lon="4.48103">
        <ele>1213.32</ele>
        <time>2018-10-15T07:59:26Z</time>
      </trkpt>
      <trkpt lat="45.29342" lon="4.48112">
        <ele>1212.84</ele>
        <time>2018-10-15T07:59:33Z</time>
      </trkpt>
      <trkpt lat="45.29348" lon="4.48128">
        <ele>1211.88</ele>
        <time>2018-10-15T07:59:45Z</time>
      </trkpt>
      <trkpt lat="45.2935" lon="4.48132">
        <ele>1211.88</ele>
        <time>2018-10-15T07:59:49Z</time>
      </trkpt>
      <trkpt lat="45.29354" lon="4.48142">
        <ele>1211.4</ele>
        <time>2018-10-15T07:59:57Z</time>
      </trkpt>
      <trkpt lat="45.29343" lon="4.48155">
        <ele>1211.4</ele>
        <time>2018-10-15T08:00:13Z</time>
      </trkpt>
      <trkpt lat="45.29321" lon="4.48173">
        <ele>1211.88</ele>
        <time>2018-10-15T08:00:35Z</time>
      </trkpt>
      <trkpt lat="45.2931" lon="4.48179">
        <ele>1212.84</ele>
        <time>2018-10-15T08:00:52Z</time>
      </trkpt>
      <trkpt lat="45.29299" lon="4.48182">
        <ele>1212.84</ele>
        <time>2018-10-15T08:01:08Z</time>
      </trkpt>
      <trkpt lat="45.29286" lon="4.48187">
        <ele>1213.8</ele>
        <time>2018-10-15T08:01:22Z</time>
      </trkpt>
      <trkpt lat="45.29272" lon="4.4819">
        <ele>1213.8</ele>
        <time>2018-10-15T08:01:36Z</time>
      </trkpt>
      <trkpt lat="45.29251" lon="4.48197">
        <ele>1213.8</ele>
        <time>2018-10-15T08:01:54Z</time>
      </trkpt>
      <trkpt lat="45.29247" lon="4.482">
        <ele>1214.28</ele>
        <time>2018-10-15T08:02:02Z</time>
      </trkpt>
      <trkpt lat="45.29246" lon="4.482">
        <ele>1214.28</ele>
        <time>2018-10-15T08:02:04Z</time>
      </trkpt>
      <trkpt lat="45.29237" lon="4.48202">
        <ele>1214.28</ele>
        <time>2018-10-15T08:02:11Z</time>
      </trkpt>
      <trkpt lat="45.29211" lon="4.48211">
        <ele>1215.72</ele>
        <time>2018-10-15T08:02:34Z</time>
      </trkpt>
      <trkpt lat="45.29185" lon="4.48219">
        <ele>1217.17</ele>
        <time>2018-10-15T08:02:57Z</time>
      </trkpt>
      <trkpt lat="45.2916" lon="4.48221">
        <ele>1217.65</ele>
        <time>2018-10-15T08:03:20Z</time>
      </trkpt>
      <trkpt lat="45.29137" lon="4.48219">
        <ele>1218.13</ele>
        <time>2018-10-15T08:03:42Z</time>
      </trkpt>
      <trkpt lat="45.29117" lon="4.48215">
        <ele>1218.61</ele>
        <time>2018-10-15T08:04:01Z</time>
      </trkpt>
      <trkpt lat="45.29094" lon="4.48208">
        <ele>1219.09</ele>
        <time>2018-10-15T08:04:21Z</time>
      </trkpt>
      <trkpt lat="45.29091" lon="4.48207">
        <ele>1220.05</ele>
        <time>2018-10-15T08:04:24Z</time>
      </trkpt>
      <trkpt lat="45.29083" lon="4.48204">
        <ele>1220.05</ele>
        <time>2018-10-15T08:04:32Z</time>
      </trkpt>
      <trkpt lat="45.29066" lon="4.482">
        <ele>1220.53</ele>
        <time>2018-10-15T08:04:49Z</time>
      </trkpt>
      <trkpt lat="45.29057" lon="4.48197">
        <ele>1221.01</ele>
        <time>2018-10-15T08:04:58Z</time>
      </trkpt>
      <trkpt lat="45.29053" lon="4.48196">
        <ele>1221.01</ele>
        <time>2018-10-15T08:05:02Z</time>
      </trkpt>
      <trkpt lat="45.29049" lon="4.48196">
        <ele>1221.01</ele>
        <time>2018-10-15T08:05:06Z</time>
      </trkpt>
      <trkpt lat="45.29031" lon="4.48193">
        <ele>1221.97</ele>
        <time>2018-10-15T08:05:22Z</time>
      </trkpt>
      <trkpt lat="45.29011" lon="4.48191">
        <ele>1222.45</ele>
        <time>2018-10-15T08:05:40Z</time>
      </trkpt>
      <trkpt lat="45.28992" lon="4.48188">
        <ele>1222.93</ele>
        <time>2018-10-15T08:05:58Z</time>
      </trkpt>
      <trkpt lat="45.28971" lon="4.48184">
        <ele>1223.9</ele>
        <time>2018-10-15T08:06:17Z</time>
      </trkpt>
      <trkpt lat="45.28952" lon="4.48175">
        <ele>1222.93</ele>
        <time>2018-10-15T08:06:36Z</time>
      </trkpt>
      <trkpt lat="45.28937" lon="4.48161">
        <ele>1223.9</ele>
        <time>2018-10-15T08:06:53Z</time>
      </trkpt>
      <trkpt lat="45.28922" lon="4.48143">
        <ele>1224.38</ele>
        <time>2018-10-15T08:07:12Z</time>
      </trkpt>
      <trkpt lat="45.28909" lon="4.48127">
        <ele>1224.86</ele>
        <time>2018-10-15T08:07:29Z</time>
      </trkpt>
      <trkpt lat="45.28894" lon="4.48107">
        <ele>1225.34</ele>
        <time>2018-10-15T08:07:48Z</time>
      </trkpt>
      <trkpt lat="45.28876" lon="4.48088">
        <ele>1225.82</ele>
        <time>2018-10-15T08:08:07Z</time>
      </trkpt>
      <trkpt lat="45.28858" lon="4.48072">
        <ele>1224.38</ele>
        <time>2018-10-15T08:08:27Z</time>
      </trkpt>
      <trkpt lat="45.28835" lon="4.48055">
        <ele>1225.34</ele>
        <time>2018-10-15T08:08:50Z</time>
      </trkpt>
      <trkpt lat="45.28819" lon="4.48041">
        <ele>1225.82</ele>
        <time>2018-10-15T08:09:10Z</time>
      </trkpt>
      <trkpt lat="45.28805" lon="4.4803">
        <ele>1226.3</ele>
        <time>2018-10-15T08:09:31Z</time>
      </trkpt>
      <trkpt lat="45.28788" lon="4.48016">
        <ele>1226.78</ele>
        <time>2018-10-15T08:09:52Z</time>
      </trkpt>
      <trkpt lat="45.28786" lon="4.48013">
        <ele>1226.78</ele>
        <time>2018-10-15T08:09:55Z</time>
      </trkpt>
      <trkpt lat="45.28766" lon="4.47991">
        <ele>1226.78</ele>
        <time>2018-10-15T08:10:16Z</time>
      </trkpt>
      <trkpt lat="45.28752" lon="4.47967">
        <ele>1227.26</ele>
        <time>2018-10-15T08:10:36Z</time>
      </trkpt>
      <trkpt lat="45.28741" lon="4.47951">
        <ele>1227.74</ele>
        <time>2018-10-15T08:10:53Z</time>
      </trkpt>
      <trkpt lat="45.28731" lon="4.47932">
        <ele>1228.22</ele>
        <time>2018-10-15T08:11:12Z</time>
      </trkpt>
      <trkpt lat="45.28731" lon="4.47928">
        <ele>1228.22</ele>
        <time>2018-10-15T08:11:35Z</time>
      </trkpt>
      <trkpt lat="45.28724" lon="4.4792">
        <ele>1228.7</ele>
        <time>2018-10-15T08:11:49Z</time>
      </trkpt>
      <trkpt lat="45.2871" lon="4.47898">
        <ele>1228.22</ele>
        <time>2018-10-15T08:12:10Z</time>
      </trkpt>
      <trkpt lat="45.28694" lon="4.47869">
        <ele>1229.18</ele>
        <time>2018-10-15T08:12:34Z</time>
      </trkpt>
      <trkpt lat="45.28678" lon="4.47843">
        <ele>1228.7</ele>
        <time>2018-10-15T08:12:55Z</time>
      </trkpt>
      <trkpt lat="45.28666" lon="4.47823">
        <ele>1228.7</ele>
        <time>2018-10-15T08:13:12Z</time>
      </trkpt>
      <trkpt lat="45.28652" lon="4.47797">
        <ele>1229.18</ele>
        <time>2018-10-15T08:13:31Z</time>
      </trkpt>
      <trkpt lat="45.28638" lon="4.47774">
        <ele>1228.7</ele>
        <time>2018-10-15T08:13:50Z</time>
      </trkpt>
      <trkpt lat="45.28632" lon="4.47762">
        <ele>1228.22</ele>
        <time>2018-10-15T08:14:04Z</time>
      </trkpt>
      <trkpt lat="45.28623" lon="4.47743">
        <ele>1227.74</ele>
        <time>2018-10-15T08:14:19Z</time>
      </trkpt>
      <trkpt lat="45.28612" lon="4.47718">
        <ele>1228.7</ele>
        <time>2018-10-15T08:14:37Z</time>
      </trkpt>
      <trkpt lat="45.28601" lon="4.47689">
        <ele>1227.26</ele>
        <time>2018-10-15T08:14:58Z</time>
      </trkpt>
      <trkpt lat="45.2859" lon="4.47665">
        <ele>1227.26</ele>
        <time>2018-10-15T08:15:17Z</time>
      </trkpt>
      <trkpt lat="45.2858" lon="4.47641">
        <ele>1226.3</ele>
        <time>2018-10-15T08:15:34Z</time>
      </trkpt>
      <trkpt lat="45.28568" lon="4.47616">
        <ele>1225.82</ele>
        <time>2018-10-15T08:15:53Z</time>
      </trkpt>
      <trkpt lat="45.28555" lon="4.47585">
        <ele>1225.34</ele>
        <time>2018-10-15T08:16:15Z</time>
      </trkpt>
      <trkpt lat="45.28554" lon="4.47581">
        <ele>1225.82</ele>
        <time>2018-10-15T08:16:18Z</time>
      </trkpt>
      <trkpt lat="45.28551" lon="4.47575">
        <ele>1225.34</ele>
        <time>2018-10-15T08:16:22Z</time>
      </trkpt>
      <trkpt lat="45.28539" lon="4.47547">
        <ele>1224.86</ele>
        <time>2018-10-15T08:16:43Z</time>
      </trkpt>
      <trkpt lat="45.28527" lon="4.47519">
        <ele>1223.42</ele>
        <time>2018-10-15T08:17:03Z</time>
      </trkpt>
      <trkpt lat="45.28513" lon="4.47486">
        <ele>1223.9</ele>
        <time>2018-10-15T08:17:27Z</time>
      </trkpt>
      <trkpt lat="45.28501" lon="4.47456">
        <ele>1222.45</ele>
        <time>2018-10-15T08:17:49Z</time>
      </trkpt>
      <trkpt lat="45.28492" lon="4.47427">
        <ele>1221.49</ele>
        <time>2018-10-15T08:18:09Z</time>
      </trkpt>
      <trkpt lat="45.28485" lon="4.47403">
        <ele>1221.97</ele>
        <time>2018-10-15T08:18:25Z</time>
      </trkpt>
      <trkpt lat="45.28477" lon="4.47374">
        <ele>1221.01</ele>
        <time>2018-10-15T08:18:44Z</time>
      </trkpt>
      <trkpt lat="45.28463" lon="4.47345">
        <ele>1219.09</ele>
        <time>2018-10-15T08:19:05Z</time>
      </trkpt>
      <trkpt lat="45.28452" lon="4.47325">
        <ele>1218.61</ele>
        <time>2018-10-15T08:19:22Z</time>
      </trkpt>
      <trkpt lat="45.28448" lon="4.47315">
        <ele>1217.65</ele>
        <time>2018-10-15T08:19:30Z</time>
      </trkpt>
      <trkpt lat="45.28438" lon="4.47297">
        <ele>1217.65</ele>
        <time>2018-10-15T08:19:45Z</time>
      </trkpt>
      <trkpt lat="45.28427" lon="4.47276">
        <ele>1216.21</ele>
        <time>2018-10-15T08:20:00Z</time>
      </trkpt>
      <trkpt lat="45.28415" lon="4.47256">
        <ele>1215.24</ele>
        <time>2018-10-15T08:20:17Z</time>
      </trkpt>
      <trkpt lat="45.28408" lon="4.47242">
        <ele>1214.28</ele>
        <time>2018-10-15T08:20:27Z</time>
      </trkpt>
      <trkpt lat="45.28395" lon="4.47214">
        <ele>1213.32</ele>
        <time>2018-10-15T08:20:48Z</time>
      </trkpt>
      <trkpt lat="45.28384" lon="4.47193">
        <ele>1212.36</ele>
        <time>2018-10-15T08:21:05Z</time>
      </trkpt>
      <trkpt lat="45.28375" lon="4.47171">
        <ele>1209.96</ele>
        <time>2018-10-15T08:21:23Z</time>
      </trkpt>
      <trkpt lat="45.28363" lon="4.47151">
        <ele>1209.96</ele>
        <time>2018-10-15T08:21:39Z</time>
      </trkpt>
      <trkpt lat="45.2835" lon="4.47128">
        <ele>1209</ele>
        <time>2018-10-15T08:21:57Z</time>
      </trkpt>
      <trkpt lat="45.28338" lon="4.4711">
        <ele>1207.55</ele>
        <time>2018-10-15T08:22:13Z</time>
      </trkpt>
      <trkpt lat="45.28322" lon="4.4709">
        <ele>1206.59</ele>
        <time>2018-10-15T08:22:32Z</time>
      </trkpt>
      <trkpt lat="45.28307" lon="4.47074">
        <ele>1205.63</ele>
        <time>2018-10-15T08:22:48Z</time>
      </trkpt>
      <trkpt lat="45.28294" lon="4.47061">
        <ele>1204.19</ele>
        <time>2018-10-15T08:23:03Z</time>
      </trkpt>
      <trkpt lat="45.2828" lon="4.47046">
        <ele>1202.75</ele>
        <time>2018-10-15T08:23:19Z</time>
      </trkpt>
      <trkpt lat="45.28263" lon="4.47031">
        <ele>1202.75</ele>
        <time>2018-10-15T08:23:36Z</time>
      </trkpt>
      <trkpt lat="45.28249" lon="4.47029">
        <ele>1201.79</ele>
        <time>2018-10-15T08:23:51Z</time>
      </trkpt>
      <trkpt lat="45.28234" lon="4.47038">
        <ele>1200.82</ele>
        <time>2018-10-15T08:24:06Z</time>
      </trkpt>
      <trkpt lat="45.28219" lon="4.47053">
        <ele>1199.86</ele>
        <time>2018-10-15T08:24:22Z</time>
      </trkpt>
      <trkpt lat="45.28207" lon="4.47066">
        <ele>1199.38</ele>
        <time>2018-10-15T08:24:36Z</time>
      </trkpt>
      <trkpt lat="45.28192" lon="4.4708">
        <ele>1198.42</ele>
        <time>2018-10-15T08:24:51Z</time>
      </trkpt>
      <trkpt lat="45.28177" lon="4.47092">
        <ele>1196.5</ele>
        <time>2018-10-15T08:25:07Z</time>
      </trkpt>
      <trkpt lat="45.28173" lon="4.47094">
        <ele>1196.5</ele>
        <time>2018-10-15T08:25:10Z</time>
      </trkpt>
      <trkpt lat="45.2816" lon="4.47103">
        <ele>1195.54</ele>
        <time>2018-10-15T08:25:24Z</time>
      </trkpt>
      <trkpt lat="45.28144" lon="4.47115">
        <ele>1194.58</ele>
        <time>2018-10-15T08:25:42Z</time>
      </trkpt>
      <trkpt lat="45.28132" lon="4.47124">
        <ele>1194.58</ele>
        <time>2018-10-15T08:25:55Z</time>
      </trkpt>
      <trkpt lat="45.28128" lon="4.47127">
        <ele>1193.61</ele>
        <time>2018-10-15T08:25:59Z</time>
      </trkpt>
      <trkpt lat="45.28118" lon="4.47134">
        <ele>1193.13</ele>
        <time>2018-10-15T08:26:16Z</time>
      </trkpt>
      <trkpt lat="45.28105" lon="4.47144">
        <ele>1192.65</ele>
        <time>2018-10-15T08:26:29Z</time>
      </trkpt>
      <trkpt lat="45.28088" lon="4.47158">
        <ele>1190.25</ele>
        <time>2018-10-15T08:26:51Z</time>
      </trkpt>
      <trkpt lat="45.28086" lon="4.47159">
        <ele>1190.25</ele>
        <time>2018-10-15T08:26:53Z</time>
      </trkpt>
      <trkpt lat="45.28066" lon="4.47173">
        <ele>1189.29</ele>
        <time>2018-10-15T08:27:13Z</time>
      </trkpt>
      <trkpt lat="45.28043" lon="4.47187">
        <ele>1187.37</ele>
        <time>2018-10-15T08:27:34Z</time>
      </trkpt>
      <trkpt lat="45.28024" lon="4.47205">
        <ele>1186.4</ele>
        <time>2018-10-15T08:27:54Z</time>
      </trkpt>
      <trkpt lat="45.28006" lon="4.4722">
        <ele>1185.92</ele>
        <time>2018-10-15T08:28:12Z</time>
      </trkpt>
      <trkpt lat="45.27983" lon="4.47237">
        <ele>1184.48</ele>
        <time>2018-10-15T08:28:33Z</time>
      </trkpt>
      <trkpt lat="45.27976" lon="4.47252">
        <ele>1183.52</ele>
        <time>2018-10-15T08:28:51Z</time>
      </trkpt>
      <trkpt lat="45.27975" lon="4.47255">
        <ele>1183.52</ele>
        <time>2018-10-15T08:29:15Z</time>
      </trkpt>
      <trkpt lat="45.27977" lon="4.47254">
        <ele>1183.52</ele>
        <time>2018-10-15T08:29:36Z</time>
      </trkpt>
      <trkpt lat="45.27973" lon="4.47251">
        <ele>1184</ele>
        <time>2018-10-15T08:29:53Z</time>
      </trkpt>
      <trkpt lat="45.27967" lon="4.47253">
        <ele>1183.04</ele>
        <time>2018-10-15T08:30:20Z</time>
      </trkpt>
      <trkpt lat="45.27964" lon="4.4726">
        <ele>1183.04</ele>
        <time>2018-10-15T08:30:37Z</time>
      </trkpt>
      <trkpt lat="45.27965" lon="4.47261">
        <ele>1183.04</ele>
        <time>2018-10-15T08:30:58Z</time>
      </trkpt>
      <trkpt lat="45.27965" lon="4.47264">
        <ele>1183.52</ele>
        <time>2018-10-15T08:31:15Z</time>
      </trkpt>
      <trkpt lat="45.27956" lon="4.4727">
        <ele>1183.04</ele>
        <time>2018-10-15T08:31:33Z</time>
      </trkpt>
      <trkpt lat="45.27946" lon="4.47277">
        <ele>1182.08</ele>
        <time>2018-10-15T08:31:49Z</time>
      </trkpt>
      <trkpt lat="45.27922" lon="4.47285">
        <ele>1180.16</ele>
        <time>2018-10-15T08:32:08Z</time>
      </trkpt>
      <trkpt lat="45.27907" lon="4.47297">
        <ele>1179.67</ele>
        <time>2018-10-15T08:32:25Z</time>
      </trkpt>
      <trkpt lat="45.279" lon="4.47301">
        <ele>1178.71</ele>
        <time>2018-10-15T08:32:30Z</time>
      </trkpt>
      <trkpt lat="45.27884" lon="4.47315">
        <ele>1177.75</ele>
        <time>2018-10-15T08:32:47Z</time>
      </trkpt>
      <trkpt lat="45.27868" lon="4.47328">
        <ele>1176.79</ele>
        <time>2018-10-15T08:33:03Z</time>
      </trkpt>
      <trkpt lat="45.27852" lon="4.47342">
        <ele>1175.35</ele>
        <time>2018-10-15T08:33:19Z</time>
      </trkpt>
      <trkpt lat="45.2783" lon="4.47349">
        <ele>1174.39</ele>
        <time>2018-10-15T08:33:37Z</time>
      </trkpt>
      <trkpt lat="45.2781" lon="4.47359">
        <ele>1174.39</ele>
        <time>2018-10-15T08:33:56Z</time>
      </trkpt>
      <trkpt lat="45.2779" lon="4.47369">
        <ele>1172.47</ele>
        <time>2018-10-15T08:34:15Z</time>
      </trkpt>
      <trkpt lat="45.27767" lon="4.47377">
        <ele>1170.54</ele>
        <time>2018-10-15T08:34:33Z</time>
      </trkpt>
      <trkpt lat="45.27743" lon="4.47382">
        <ele>1169.58</ele>
        <time>2018-10-15T08:34:52Z</time>
      </trkpt>
      <trkpt lat="45.27736" lon="4.47385">
        <ele>1169.1</ele>
        <time>2018-10-15T08:35:00Z</time>
      </trkpt>
      <trkpt lat="45.27732" lon="4.47385">
        <ele>1169.1</ele>
        <time>2018-10-15T08:35:04Z</time>
      </trkpt>
      <trkpt lat="45.2771" lon="4.47381">
        <ele>1167.66</ele>
        <time>2018-10-15T08:35:24Z</time>
      </trkpt>
      <trkpt lat="45.27684" lon="4.47371">
        <ele>1166.22</ele>
        <time>2018-10-15T08:35:47Z</time>
      </trkpt>
      <trkpt lat="45.27664" lon="4.4735">
        <ele>1164.29</ele>
        <time>2018-10-15T08:36:10Z</time>
      </trkpt>
      <trkpt lat="45.27645" lon="4.47326">
        <ele>1162.85</ele>
        <time>2018-10-15T08:36:33Z</time>
      </trkpt>
      <trkpt lat="45.27631" lon="4.47306">
        <ele>1161.89</ele>
        <time>2018-10-15T08:36:49Z</time>
      </trkpt>
      <trkpt lat="45.27629" lon="4.47304">
        <ele>1160.93</ele>
        <time>2018-10-15T08:37:09Z</time>
      </trkpt>
      <trkpt lat="45.27617" lon="4.47294">
        <ele>1161.89</ele>
        <time>2018-10-15T08:37:33Z</time>
      </trkpt>
      <trkpt lat="45.27596" lon="4.47282">
        <ele>1161.89</ele>
        <time>2018-10-15T08:37:53Z</time>
      </trkpt>
      <trkpt lat="45.2758" lon="4.47274">
        <ele>1162.37</ele>
        <time>2018-10-15T08:38:15Z</time>
      </trkpt>
      <trkpt lat="45.27576" lon="4.47273">
        <ele>1161.41</ele>
        <time>2018-10-15T08:38:32Z</time>
      </trkpt>
      <trkpt lat="45.27576" lon="4.47274">
        <ele>1161.89</ele>
        <time>2018-10-15T08:38:46Z</time>
      </trkpt>
      <trkpt lat="45.27575" lon="4.47278">
        <ele>1160.93</ele>
        <time>2018-10-15T08:39:09Z</time>
      </trkpt>
      <trkpt lat="45.27575" lon="4.47282">
        <ele>1160.45</ele>
        <time>2018-10-15T08:39:21Z</time>
      </trkpt>
      <trkpt lat="45.2758" lon="4.47283">
        <ele>1159.97</ele>
        <time>2018-10-15T08:39:40Z</time>
      </trkpt>
      <trkpt lat="45.2758" lon="4.4728">
        <ele>1161.89</ele>
        <time>2018-10-15T08:40:05Z</time>
      </trkpt>
      <trkpt lat="45.27576" lon="4.47277">
        <ele>1161.89</ele>
        <time>2018-10-15T08:40:23Z</time>
      </trkpt>
      <trkpt lat="45.27574" lon="4.47276">
        <ele>1162.37</ele>
        <time>2018-10-15T08:40:41Z</time>
      </trkpt>
      <trkpt lat="45.27571" lon="4.47274">
        <ele>1161.89</ele>
        <time>2018-10-15T08:40:47Z</time>
      </trkpt>
      <trkpt lat="45.27552" lon="4.47275">
        <ele>1161.41</ele>
        <time>2018-10-15T08:41:06Z</time>
      </trkpt>
      <trkpt lat="45.27532" lon="4.4728">
        <ele>1161.41</ele>
        <time>2018-10-15T08:41:26Z</time>
      </trkpt>
      <trkpt lat="45.27519" lon="4.47283">
        <ele>1162.37</ele>
        <time>2018-10-15T08:41:39Z</time>
      </trkpt>
      <trkpt lat="45.27506" lon="4.47284">
        <ele>1163.81</ele>
        <time>2018-10-15T08:41:50Z</time>
      </trkpt>
      <trkpt lat="45.27482" lon="4.47286">
        <ele>1162.85</ele>
        <time>2018-10-15T08:42:09Z</time>
      </trkpt>
      <trkpt lat="45.27467" lon="4.47297">
        <ele>1162.85</ele>
        <time>2018-10-15T08:42:27Z</time>
      </trkpt>
      <trkpt lat="45.27466" lon="4.47295">
        <ele>1161.41</ele>
        <time>2018-10-15T08:42:47Z</time>
      </trkpt>
      <trkpt lat="45.27466" lon="4.47295">
        <ele>1161.89</ele>
        <time>2018-10-15T08:43:11Z</time>
      </trkpt>
      <trkpt lat="45.27471" lon="4.47295">
        <ele>1161.89</ele>
        <time>2018-10-15T08:43:17Z</time>
      </trkpt>
      <trkpt lat="45.27492" lon="4.4729">
        <ele>1162.85</ele>
        <time>2018-10-15T08:43:36Z</time>
      </trkpt>
      <trkpt lat="45.27496" lon="4.47285">
        <ele>1164.77</ele>
        <time>2018-10-15T08:43:49Z</time>
      </trkpt>
      <trkpt lat="45.27498" lon="4.47269">
        <ele>1167.18</ele>
        <time>2018-10-15T08:44:05Z</time>
      </trkpt>
      <trkpt lat="45.27502" lon="4.47247">
        <ele>1167.18</ele>
        <time>2018-10-15T08:44:22Z</time>
      </trkpt>
      <trkpt lat="45.27497" lon="4.47243">
        <ele>1167.66</ele>
        <time>2018-10-15T08:44:45Z</time>
      </trkpt>
      <trkpt lat="45.27499" lon="4.4724">
        <ele>1167.66</ele>
        <time>2018-10-15T08:45:13Z</time>
      </trkpt>
      <trkpt lat="45.27503" lon="4.47237">
        <ele>1166.7</ele>
        <time>2018-10-15T08:45:40Z</time>
      </trkpt>
      <trkpt lat="45.27508" lon="4.47226">
        <ele>1168.14</ele>
        <time>2018-10-15T08:45:56Z</time>
      </trkpt>
      <trkpt lat="45.27504" lon="4.47209">
        <ele>1170.06</ele>
        <time>2018-10-15T08:46:12Z</time>
      </trkpt>
      <trkpt lat="45.27499" lon="4.47191">
        <ele>1172.95</ele>
        <time>2018-10-15T08:46:27Z</time>
      </trkpt>
      <trkpt lat="45.27495" lon="4.47173">
        <ele>1175.35</ele>
        <time>2018-10-15T08:46:44Z</time>
      </trkpt>
      <trkpt lat="45.27495" lon="4.47158">
        <ele>1176.31</ele>
        <time>2018-10-15T08:47:01Z</time>
      </trkpt>
      <trkpt lat="45.27485" lon="4.47136">
        <ele>1178.23</ele>
        <time>2018-10-15T08:47:17Z</time>
      </trkpt>
      <trkpt lat="45.27477" lon="4.47124">
        <ele>1180.16</ele>
        <time>2018-10-15T08:47:33Z</time>
      </trkpt>
      <trkpt lat="45.27471" lon="4.47121">
        <ele>1181.12</ele>
        <time>2018-10-15T08:47:48Z</time>
      </trkpt>
      <trkpt lat="45.27464" lon="4.47109">
        <ele>1182.08</ele>
        <time>2018-10-15T08:48:07Z</time>
      </trkpt>
      <trkpt lat="45.27452" lon="4.47098">
        <ele>1184</ele>
        <time>2018-10-15T08:48:29Z</time>
      </trkpt>
      <trkpt lat="45.27441" lon="4.47091">
        <ele>1185.44</ele>
        <time>2018-10-15T08:48:45Z</time>
      </trkpt>
      <trkpt lat="45.27426" lon="4.47084">
        <ele>1187.85</ele>
        <time>2018-10-15T08:49:02Z</time>
      </trkpt>
      <trkpt lat="45.2741" lon="4.47076">
        <ele>1187.37</ele>
        <time>2018-10-15T08:49:21Z</time>
      </trkpt>
      <trkpt lat="45.274" lon="4.4707">
        <ele>1187.37</ele>
        <time>2018-10-15T08:49:37Z</time>
      </trkpt>
      <trkpt lat="45.2739" lon="4.47067">
        <ele>1186.88</ele>
        <time>2018-10-15T08:49:54Z</time>
      </trkpt>
      <trkpt lat="45.27381" lon="4.47067">
        <ele>1186.88</ele>
        <time>2018-10-15T08:50:24Z</time>
      </trkpt>
      <trkpt lat="45.2738" lon="4.47062">
        <ele>1188.81</ele>
        <time>2018-10-15T08:50:45Z</time>
      </trkpt>
      <trkpt lat="45.27382" lon="4.47062">
        <ele>1189.29</ele>
        <time>2018-10-15T08:51:08Z</time>
      </trkpt>
      <trkpt lat="45.27387" lon="4.47066">
        <ele>1188.33</ele>
        <time>2018-10-15T08:51:27Z</time>
      </trkpt>
      <trkpt lat="45.2738" lon="4.47048">
        <ele>1187.85</ele>
        <time>2018-10-15T08:51:44Z</time>
      </trkpt>
      <trkpt lat="45.27375" lon="4.47038">
        <ele>1188.33</ele>
        <time>2018-10-15T08:52:02Z</time>
      </trkpt>
      <trkpt lat="45.27381" lon="4.4703">
        <ele>1188.33</ele>
        <time>2018-10-15T08:52:22Z</time>
      </trkpt>
      <trkpt lat="45.27381" lon="4.47016">
        <ele>1188.33</ele>
        <time>2018-10-15T08:52:39Z</time>
      </trkpt>
      <trkpt lat="45.27376" lon="4.47009">
        <ele>1187.85</ele>
        <time>2018-10-15T08:52:57Z</time>
      </trkpt>
      <trkpt lat="45.27374" lon="4.46998">
        <ele>1188.33</ele>
        <time>2018-10-15T08:53:12Z</time>
      </trkpt>
      <trkpt lat="45.27365" lon="4.46979">
        <ele>1188.81</ele>
        <time>2018-10-15T08:53:31Z</time>
      </trkpt>
      <trkpt lat="45.27361" lon="4.46954">
        <ele>1189.77</ele>
        <time>2018-10-15T08:53:50Z</time>
      </trkpt>
      <trkpt lat="45.27348" lon="4.46927">
        <ele>1189.77</ele>
        <time>2018-10-15T08:54:13Z</time>
      </trkpt>
      <trkpt lat="45.27342" lon="4.46896">
        <ele>1190.73</ele>
        <time>2018-10-15T08:54:36Z</time>
      </trkpt>
      <trkpt lat="45.27338" lon="4.46883">
        <ele>1190.25</ele>
        <time>2018-10-15T08:54:54Z</time>
      </trkpt>
      <trkpt lat="45.27352" lon="4.46872">
        <ele>1192.17</ele>
        <time>2018-10-15T08:55:18Z</time>
      </trkpt>
      <trkpt lat="45.27367" lon="4.4687">
        <ele>1193.61</ele>
        <time>2018-10-15T08:55:41Z</time>
      </trkpt>
      <trkpt lat="45.27381" lon="4.46868">
        <ele>1194.58</ele>
        <time>2018-10-15T08:56:00Z</time>
      </trkpt>
      <trkpt lat="45.27378" lon="4.46865">
        <ele>1194.58</ele>
        <time>2018-10-15T08:56:24Z</time>
      </trkpt>
      <trkpt lat="45.27375" lon="4.46863">
        <ele>1193.61</ele>
        <time>2018-10-15T08:56:43Z</time>
      </trkpt>
      <trkpt lat="45.27374" lon="4.46861">
        <ele>1193.61</ele>
        <time>2018-10-15T08:57:00Z</time>
      </trkpt>
      <trkpt lat="45.27375" lon="4.46861">
        <ele>1195.06</ele>
        <time>2018-10-15T08:57:19Z</time>
      </trkpt>
      <trkpt lat="45.27376" lon="4.46856">
        <ele>1196.5</ele>
        <time>2018-10-15T08:57:36Z</time>
      </trkpt>
      <trkpt lat="45.27376" lon="4.46862">
        <ele>1196.98</ele>
        <time>2018-10-15T08:57:56Z</time>
      </trkpt>
      <trkpt lat="45.27376" lon="4.46849">
        <ele>1196.5</ele>
        <time>2018-10-15T08:58:14Z</time>
      </trkpt>
      <trkpt lat="45.27378" lon="4.46846">
        <ele>1196.02</ele>
        <time>2018-10-15T08:58:39Z</time>
      </trkpt>
      <trkpt lat="45.27384" lon="4.46846">
        <ele>1194.58</ele>
        <time>2018-10-15T08:58:59Z</time>
      </trkpt>
      <trkpt lat="45.27387" lon="4.46848">
        <ele>1194.09</ele>
        <time>2018-10-15T08:59:21Z</time>
      </trkpt>
      <trkpt lat="45.27383" lon="4.46846">
        <ele>1194.58</ele>
        <time>2018-10-15T08:59:46Z</time>
      </trkpt>
      <trkpt lat="45.27385" lon="4.46843">
        <ele>1194.58</ele>
        <time>2018-10-15T09:00:07Z</time>
      </trkpt>
      <trkpt lat="45.27384" lon="4.4684">
        <ele>1194.58</ele>
        <time>2018-10-15T09:00:37Z</time>
      </trkpt>
      <trkpt lat="45.27385" lon="4.4684">
        <ele>1194.09</ele>
        <time>2018-10-15T09:01:06Z</time>
      </trkpt>
      <trkpt lat="45.2738" lon="4.46835">
        <ele>1194.09</ele>
        <time>2018-10-15T09:01:25Z</time>
      </trkpt>
      <trkpt lat="45.27384" lon="4.4683">
        <ele>1194.09</ele>
        <time>2018-10-15T09:01:43Z</time>
      </trkpt>
      <trkpt lat="45.27376" lon="4.46829">
        <ele>1193.61</ele>
        <time>2018-10-15T09:02:04Z</time>
      </trkpt>
      <trkpt lat="45.2737" lon="4.4684">
        <ele>1192.17</ele>
        <time>2018-10-15T09:02:25Z</time>
      </trkpt>
      <trkpt lat="45.27374" lon="4.46846">
        <ele>1192.65</ele>
        <time>2018-10-15T09:02:49Z</time>
      </trkpt>
      <trkpt lat="45.27369" lon="4.46854">
        <ele>1194.09</ele>
        <time>2018-10-15T09:03:12Z</time>
      </trkpt>
      <trkpt lat="45.27371" lon="4.46857">
        <ele>1196.02</ele>
        <time>2018-10-15T09:03:23Z</time>
      </trkpt>
      <trkpt lat="45.2737" lon="4.4686">
        <ele>1193.13</ele>
        <time>2018-10-15T09:03:44Z</time>
      </trkpt>
      <trkpt lat="45.27367" lon="4.4686">
        <ele>1193.13</ele>
        <time>2018-10-15T09:04:02Z</time>
      </trkpt>
      <trkpt lat="45.27361" lon="4.46868">
        <ele>1191.21</ele>
        <time>2018-10-15T09:04:25Z</time>
      </trkpt>
      <trkpt lat="45.27351" lon="4.46868">
        <ele>1190.73</ele>
        <time>2018-10-15T09:04:59Z</time>
      </trkpt>
      <trkpt lat="45.27339" lon="4.46872">
        <ele>1189.77</ele>
        <time>2018-10-15T09:05:29Z</time>
      </trkpt>
      <trkpt lat="45.27334" lon="4.46857">
        <ele>1189.29</ele>
        <time>2018-10-15T09:05:50Z</time>
      </trkpt>
      <trkpt lat="45.27336" lon="4.46846">
        <ele>1189.77</ele>
        <time>2018-10-15T09:06:12Z</time>
      </trkpt>
      <trkpt lat="45.2734" lon="4.46821">
        <ele>1188.33</ele>
        <time>2018-10-15T09:06:32Z</time>
      </trkpt>
      <trkpt lat="45.27347" lon="4.46801">
        <ele>1186.88</ele>
        <time>2018-10-15T09:06:51Z</time>
      </trkpt>
      <trkpt lat="45.27351" lon="4.46785">
        <ele>1185.92</ele>
        <time>2018-10-15T09:07:04Z</time>
      </trkpt>
      <trkpt lat="45.27358" lon="4.46771">
        <ele>1186.4</ele>
        <time>2018-10-15T09:07:19Z</time>
      </trkpt>
      <trkpt lat="45.27362" lon="4.46754">
        <ele>1186.88</ele>
        <time>2018-10-15T09:07:39Z</time>
      </trkpt>
      <trkpt lat="45.27369" lon="4.46737">
        <ele>1186.4</ele>
        <time>2018-10-15T09:07:57Z</time>
      </trkpt>
      <trkpt lat="45.27365" lon="4.46722">
        <ele>1185.92</ele>
        <time>2018-10-15T09:08:16Z</time>
      </trkpt>
      <trkpt lat="45.27356" lon="4.46711">
        <ele>1184.96</ele>
        <time>2018-10-15T09:08:35Z</time>
      </trkpt>
      <trkpt lat="45.27353" lon="4.46696">
        <ele>1183.52</ele>
        <time>2018-10-15T09:08:55Z</time>
      </trkpt>
      <trkpt lat="45.27358" lon="4.46698">
        <ele>1184</ele>
        <time>2018-10-15T09:09:20Z</time>
      </trkpt>
      <trkpt lat="45.27356" lon="4.46696">
        <ele>1184.48</ele>
        <time>2018-10-15T09:09:38Z</time>
      </trkpt>
      <trkpt lat="45.27351" lon="4.46705">
        <ele>1186.88</ele>
        <time>2018-10-15T09:09:52Z</time>
      </trkpt>
      <trkpt lat="45.27352" lon="4.46708">
        <ele>1185.44</ele>
        <time>2018-10-15T09:09:55Z</time>
      </trkpt>
      <trkpt lat="45.27359" lon="4.46718">
        <ele>1184.48</ele>
        <time>2018-10-15T09:10:18Z</time>
      </trkpt>
      <trkpt lat="45.27369" lon="4.46747">
        <ele>1186.4</ele>
        <time>2018-10-15T09:10:41Z</time>
      </trkpt>
      <trkpt lat="45.27365" lon="4.46756">
        <ele>1185.92</ele>
        <time>2018-10-15T09:11:08Z</time>
      </trkpt>
      <trkpt lat="45.27356" lon="4.46773">
        <ele>1185.92</ele>
        <time>2018-10-15T09:11:28Z</time>
      </trkpt>
      <trkpt lat="45.27355" lon="4.46776">
        <ele>1185.92</ele>
        <time>2018-10-15T09:11:43Z</time>
      </trkpt>
      <trkpt lat="45.27353" lon="4.4678">
        <ele>1185.92</ele>
        <time>2018-10-15T09:11:46Z</time>
      </trkpt>
      <trkpt lat="45.27345" lon="4.46807">
        <ele>1186.88</ele>
        <time>2018-10-15T09:12:06Z</time>
      </trkpt>
      <trkpt lat="45.27339" lon="4.46826">
        <ele>1186.88</ele>
        <time>2018-10-15T09:12:24Z</time>
      </trkpt>
      <trkpt lat="45.27336" lon="4.46844">
        <ele>1187.85</ele>
        <time>2018-10-15T09:12:40Z</time>
      </trkpt>
      <trkpt lat="45.27333" lon="4.4686">
        <ele>1189.29</ele>
        <time>2018-10-15T09:12:56Z</time>
      </trkpt>
      <trkpt lat="45.27334" lon="4.46881">
        <ele>1188.33</ele>
        <time>2018-10-15T09:13:13Z</time>
      </trkpt>
      <trkpt lat="45.27336" lon="4.46903">
        <ele>1189.77</ele>
        <time>2018-10-15T09:13:28Z</time>
      </trkpt>
      <trkpt lat="45.27344" lon="4.46932">
        <ele>1187.37</ele>
        <time>2018-10-15T09:13:46Z</time>
      </trkpt>
      <trkpt lat="45.2735" lon="4.46944">
        <ele>1186.4</ele>
        <time>2018-10-15T09:14:04Z</time>
      </trkpt>
      <trkpt lat="45.27353" lon="4.46953">
        <ele>1186.4</ele>
        <time>2018-10-15T09:14:21Z</time>
      </trkpt>
      <trkpt lat="45.27361" lon="4.46973">
        <ele>1186.4</ele>
        <time>2018-10-15T09:14:38Z</time>
      </trkpt>
      <trkpt lat="45.2737" lon="4.46997">
        <ele>1186.4</ele>
        <time>2018-10-15T09:14:55Z</time>
      </trkpt>
      <trkpt lat="45.27377" lon="4.47015">
        <ele>1185.92</ele>
        <time>2018-10-15T09:15:11Z</time>
      </trkpt>
      <trkpt lat="45.27379" lon="4.47028">
        <ele>1184.96</ele>
        <time>2018-10-15T09:15:26Z</time>
      </trkpt>
      <trkpt lat="45.27377" lon="4.47034">
        <ele>1185.44</ele>
        <time>2018-10-15T09:15:46Z</time>
      </trkpt>
      <trkpt lat="45.27377" lon="4.47035">
        <ele>1185.44</ele>
        <time>2018-10-15T09:15:47Z</time>
      </trkpt>
      <trkpt lat="45.27379" lon="4.47053">
        <ele>1186.4</ele>
        <time>2018-10-15T09:16:04Z</time>
      </trkpt>
      <trkpt lat="45.27381" lon="4.47065">
        <ele>1186.4</ele>
        <time>2018-10-15T09:16:23Z</time>
      </trkpt>
      <trkpt lat="45.27387" lon="4.47066">
        <ele>1185.92</ele>
        <time>2018-10-15T09:16:49Z</time>
      </trkpt>
      <trkpt lat="45.27388" lon="4.47066">
        <ele>1184.96</ele>
        <time>2018-10-15T09:17:13Z</time>
      </trkpt>
      <trkpt lat="45.27387" lon="4.47066">
        <ele>1185.44</ele>
        <time>2018-10-15T09:17:44Z</time>
      </trkpt>
      <trkpt lat="45.27385" lon="4.47063">
        <ele>1185.44</ele>
        <time>2018-10-15T09:17:59Z</time>
      </trkpt>
      <trkpt lat="45.27385" lon="4.47062">
        <ele>1185.92</ele>
        <time>2018-10-15T09:18:19Z</time>
      </trkpt>
      <trkpt lat="45.27379" lon="4.47061">
        <ele>1186.4</ele>
        <time>2018-10-15T09:18:45Z</time>
      </trkpt>
      <trkpt lat="45.27377" lon="4.47065">
        <ele>1186.4</ele>
        <time>2018-10-15T09:19:14Z</time>
      </trkpt>
      <trkpt lat="45.27372" lon="4.47062">
        <ele>1186.88</ele>
        <time>2018-10-15T09:19:43Z</time>
      </trkpt>
      <trkpt lat="45.27374" lon="4.47062">
        <ele>1187.37</ele>
        <time>2018-10-15T09:20:14Z</time>
      </trkpt>
      <trkpt lat="45.27374" lon="4.4707">
        <ele>1186.88</ele>
        <time>2018-10-15T09:20:41Z</time>
      </trkpt>
      <trkpt lat="45.27382" lon="4.47066">
        <ele>1187.37</ele>
        <time>2018-10-15T09:21:05Z</time>
      </trkpt>
      <trkpt lat="45.27378" lon="4.47062">
        <ele>1186.88</ele>
        <time>2018-10-15T09:21:32Z</time>
      </trkpt>
      <trkpt lat="45.27378" lon="4.47061">
        <ele>1186.88</ele>
        <time>2018-10-15T09:21:59Z</time>
      </trkpt>
      <trkpt lat="45.2738" lon="4.4706">
        <ele>1188.33</ele>
        <time>2018-10-15T09:22:22Z</time>
      </trkpt>
      <trkpt lat="45.2738" lon="4.47064">
        <ele>1188.81</ele>
        <time>2018-10-15T09:22:43Z</time>
      </trkpt>
      <trkpt lat="45.27366" lon="4.47054">
        <ele>1187.85</ele>
        <time>2018-10-15T09:23:02Z</time>
      </trkpt>
      <trkpt lat="45.27348" lon="4.47058">
        <ele>1188.33</ele>
        <time>2018-10-15T09:23:24Z</time>
      </trkpt>
      <trkpt lat="45.27327" lon="4.47061">
        <ele>1187.85</ele>
        <time>2018-10-15T09:23:45Z</time>
      </trkpt>
      <trkpt lat="45.27315" lon="4.47053">
        <ele>1186.88</ele>
        <time>2018-10-15T09:24:04Z</time>
      </trkpt>
      <trkpt lat="45.273" lon="4.47048">
        <ele>1185.92</ele>
        <time>2018-10-15T09:24:28Z</time>
      </trkpt>
      <trkpt lat="45.27293" lon="4.47062">
        <ele>1185.44</ele>
        <time>2018-10-15T09:24:53Z</time>
      </trkpt>
      <trkpt lat="45.27295" lon="4.47067">
        <ele>1185.44</ele>
        <time>2018-10-15T09:25:24Z</time>
      </trkpt>
      <trkpt lat="45.27295" lon="4.47071">
        <ele>1186.88</ele>
        <time>2018-10-15T09:25:41Z</time>
      </trkpt>
      <trkpt lat="45.27295" lon="4.47066">
        <ele>1186.88</ele>
        <time>2018-10-15T09:26:00Z</time>
      </trkpt>
      <trkpt lat="45.27295" lon="4.47057">
        <ele>1185.92</ele>
        <time>2018-10-15T09:26:17Z</time>
      </trkpt>
      <trkpt lat="45.27277" lon="4.47042">
        <ele>1183.52</ele>
        <time>2018-10-15T09:26:37Z</time>
      </trkpt>
      <trkpt lat="45.27263" lon="4.47029">
        <ele>1181.6</ele>
        <time>2018-10-15T09:26:56Z</time>
      </trkpt>
      <trkpt lat="45.27253" lon="4.47023">
        <ele>1178.23</ele>
        <time>2018-10-15T09:27:09Z</time>
      </trkpt>
      <trkpt lat="45.27237" lon="4.47021">
        <ele>1174.87</ele>
        <time>2018-10-15T09:27:26Z</time>
      </trkpt>
      <trkpt lat="45.27226" lon="4.47009">
        <ele>1172.95</ele>
        <time>2018-10-15T09:27:49Z</time>
      </trkpt>
      <trkpt lat="45.27226" lon="4.47001">
        <ele>1172.47</ele>
        <time>2018-10-15T09:28:10Z</time>
      </trkpt>
      <trkpt lat="45.2723" lon="4.46994">
        <ele>1173.43</ele>
        <time>2018-10-15T09:28:32Z</time>
      </trkpt>
      <trkpt lat="45.27236" lon="4.46968">
        <ele>1174.87</ele>
        <time>2018-10-15T09:28:48Z</time>
      </trkpt>
      <trkpt lat="45.27233" lon="4.46954">
        <ele>1175.83</ele>
        <time>2018-10-15T09:29:00Z</time>
      </trkpt>
      <trkpt lat="45.2723" lon="4.46943">
        <ele>1175.35</ele>
        <time>2018-10-15T09:29:24Z</time>
      </trkpt>
      <trkpt lat="45.27231" lon="4.46926">
        <ele>1176.31</ele>
        <time>2018-10-15T09:29:45Z</time>
      </trkpt>
      <trkpt lat="45.27231" lon="4.46899">
        <ele>1177.27</ele>
        <time>2018-10-15T09:30:02Z</time>
      </trkpt>
      <trkpt lat="45.27237" lon="4.46881">
        <ele>1177.75</ele>
        <time>2018-10-15T09:30:18Z</time>
      </trkpt>
      <trkpt lat="45.2725" lon="4.46861">
        <ele>1180.64</ele>
        <time>2018-10-15T09:30:41Z</time>
      </trkpt>
      <trkpt lat="45.27261" lon="4.46839">
        <ele>1181.6</ele>
        <time>2018-10-15T09:31:03Z</time>
      </trkpt>
      <trkpt lat="45.27281" lon="4.46827">
        <ele>1181.6</ele>
        <time>2018-10-15T09:31:28Z</time>
      </trkpt>
      <trkpt lat="45.27298" lon="4.46817">
        <ele>1182.08</ele>
        <time>2018-10-15T09:31:47Z</time>
      </trkpt>
      <trkpt lat="45.27309" lon="4.46822">
        <ele>1183.52</ele>
        <time>2018-10-15T09:32:09Z</time>
      </trkpt>
      <trkpt lat="45.27321" lon="4.46829">
        <ele>1184.96</ele>
        <time>2018-10-15T09:32:27Z</time>
      </trkpt>
      <trkpt lat="45.27333" lon="4.46838">
        <ele>1185.44</ele>
        <time>2018-10-15T09:32:45Z</time>
      </trkpt>
      <trkpt lat="45.27334" lon="4.46846">
        <ele>1186.88</ele>
        <time>2018-10-15T09:33:08Z</time>
      </trkpt>
      <trkpt lat="45.27331" lon="4.46851">
        <ele>1187.85</ele>
        <time>2018-10-15T09:33:32Z</time>
      </trkpt>
      <trkpt lat="45.27328" lon="4.46866">
        <ele>1187.37</ele>
        <time>2018-10-15T09:33:50Z</time>
      </trkpt>
      <trkpt lat="45.27331" lon="4.46888">
        <ele>1187.85</ele>
        <time>2018-10-15T09:34:11Z</time>
      </trkpt>
      <trkpt lat="45.27334" lon="4.46903">
        <ele>1187.85</ele>
        <time>2018-10-15T09:34:34Z</time>
      </trkpt>
      <trkpt lat="45.27337" lon="4.46925">
        <ele>1187.37</ele>
        <time>2018-10-15T09:34:49Z</time>
      </trkpt>
      <trkpt lat="45.27347" lon="4.46953">
        <ele>1184.96</ele>
        <time>2018-10-15T09:35:10Z</time>
      </trkpt>
      <trkpt lat="45.27359" lon="4.46981">
        <ele>1185.44</ele>
        <time>2018-10-15T09:35:33Z</time>
      </trkpt>
      <trkpt lat="45.27372" lon="4.47015">
        <ele>1185.92</ele>
        <time>2018-10-15T09:35:58Z</time>
      </trkpt>
      <trkpt lat="45.27379" lon="4.47042">
        <ele>1185.92</ele>
        <time>2018-10-15T09:36:21Z</time>
      </trkpt>
      <trkpt lat="45.27379" lon="4.47064">
        <ele>1185.92</ele>
        <time>2018-10-15T09:36:40Z</time>
      </trkpt>
      <trkpt lat="45.27381" lon="4.47065">
        <ele>1185.44</ele>
        <time>2018-10-15T09:37:06Z</time>
      </trkpt>
      <trkpt lat="45.27389" lon="4.47063">
        <ele>1184.48</ele>
        <time>2018-10-15T09:37:42Z</time>
      </trkpt>
      <trkpt lat="45.27391" lon="4.4706">
        <ele>1184.48</ele>
        <time>2018-10-15T09:38:16Z</time>
      </trkpt>
      <trkpt lat="45.27383" lon="4.47071">
        <ele>1185.44</ele>
        <time>2018-10-15T09:38:51Z</time>
      </trkpt>
      <trkpt lat="45.27381" lon="4.47076">
        <ele>1183.04</ele>
        <time>2018-10-15T09:39:15Z</time>
      </trkpt>
      <trkpt lat="45.27384" lon="4.47068">
        <ele>1184</ele>
        <time>2018-10-15T09:39:41Z</time>
      </trkpt>
      <trkpt lat="45.27384" lon="4.47063">
        <ele>1184</ele>
        <time>2018-10-15T09:40:04Z</time>
      </trkpt>
      <trkpt lat="45.27383" lon="4.47064">
        <ele>1183.04</ele>
        <time>2018-10-15T09:40:33Z</time>
      </trkpt>
      <trkpt lat="45.27384" lon="4.47055">
        <ele>1184.48</ele>
        <time>2018-10-15T09:41:01Z</time>
      </trkpt>
      <trkpt lat="45.27383" lon="4.47059">
        <ele>1184.96</ele>
        <time>2018-10-15T09:41:32Z</time>
      </trkpt>
      <trkpt lat="45.27385" lon="4.47062">
        <ele>1185.44</ele>
        <time>2018-10-15T09:41:57Z</time>
      </trkpt>
      <trkpt lat="45.27384" lon="4.47067">
        <ele>1185.44</ele>
        <time>2018-10-15T09:42:26Z</time>
      </trkpt>
      <trkpt lat="45.27384" lon="4.47066">
        <ele>1185.92</ele>
        <time>2018-10-15T09:42:57Z</time>
      </trkpt>
      <trkpt lat="45.27383" lon="4.4706">
        <ele>1187.37</ele>
        <time>2018-10-15T09:43:33Z</time>
      </trkpt>
      <trkpt lat="45.27382" lon="4.47061">
        <ele>1186.88</ele>
        <time>2018-10-15T09:44:07Z</time>
      </trkpt>
      <trkpt lat="45.27386" lon="4.47056">
        <ele>1187.37</ele>
        <time>2018-10-15T09:44:50Z</time>
      </trkpt>
      <trkpt lat="45.27386" lon="4.47061">
        <ele>1187.37</ele>
        <time>2018-10-15T09:45:21Z</time>
      </trkpt>
      <trkpt lat="45.27386" lon="4.4706">
        <ele>1187.85</ele>
        <time>2018-10-15T09:45:53Z</time>
      </trkpt>
      <trkpt lat="45.2739" lon="4.47056">
        <ele>1187.85</ele>
        <time>2018-10-15T09:46:24Z</time>
      </trkpt>
      <trkpt lat="45.27388" lon="4.4706">
        <ele>1187.85</ele>
        <time>2018-10-15T09:46:59Z</time>
      </trkpt>
      <trkpt lat="45.27385" lon="4.47066">
        <ele>1188.33</ele>
        <time>2018-10-15T09:47:39Z</time>
      </trkpt>
      <trkpt lat="45.2739" lon="4.47064">
        <ele>1188.33</ele>
        <time>2018-10-15T09:48:19Z</time>
      </trkpt>
      <trkpt lat="45.27387" lon="4.47061">
        <ele>1188.33</ele>
        <time>2018-10-15T09:49:00Z</time>
      </trkpt>
      <trkpt lat="45.27382" lon="4.47066">
        <ele>1188.81</ele>
        <time>2018-10-15T09:49:33Z</time>
      </trkpt>
      <trkpt lat="45.27381" lon="4.47061">
        <ele>1189.29</ele>
        <time>2018-10-15T09:50:09Z</time>
      </trkpt>
      <trkpt lat="45.27382" lon="4.47055">
        <ele>1188.81</ele>
        <time>2018-10-15T09:50:38Z</time>
      </trkpt>
      <trkpt lat="45.27383" lon="4.47061">
        <ele>1190.25</ele>
        <time>2018-10-15T09:51:04Z</time>
      </trkpt>
      <trkpt lat="45.27388" lon="4.47065">
        <ele>1189.29</ele>
        <time>2018-10-15T09:51:36Z</time>
      </trkpt>
      <trkpt lat="45.27388" lon="4.47067">
        <ele>1190.25</ele>
        <time>2018-10-15T09:52:08Z</time>
      </trkpt>
      <trkpt lat="45.27388" lon="4.47066">
        <ele>1188.33</ele>
        <time>2018-10-15T09:52:13Z</time>
      </trkpt>
      <trkpt lat="45.27389" lon="4.47064">
        <ele>1189.77</ele>
        <time>2018-10-15T09:52:17Z</time>
      </trkpt>
      <trkpt lat="45.2739" lon="4.47065">
        <ele>1190.73</ele>
        <time>2018-10-15T09:52:49Z</time>
      </trkpt>
      <trkpt lat="45.27388" lon="4.4707">
        <ele>1191.69</ele>
        <time>2018-10-15T09:53:23Z</time>
      </trkpt>
      <trkpt lat="45.27387" lon="4.47066">
        <ele>1190.73</ele>
        <time>2018-10-15T09:53:52Z</time>
      </trkpt>
      <trkpt lat="45.27386" lon="4.4707">
        <ele>1191.69</ele>
        <time>2018-10-15T09:54:25Z</time>
      </trkpt>
      <trkpt lat="45.27384" lon="4.47067">
        <ele>1190.25</ele>
        <time>2018-10-15T09:54:54Z</time>
      </trkpt>
      <trkpt lat="45.27385" lon="4.47065">
        <ele>1190.73</ele>
        <time>2018-10-15T09:55:21Z</time>
      </trkpt>
      <trkpt lat="45.27386" lon="4.47062">
        <ele>1190.73</ele>
        <time>2018-10-15T09:55:48Z</time>
      </trkpt>
      <trkpt lat="45.27386" lon="4.47058">
        <ele>1191.21</ele>
        <time>2018-10-15T09:56:17Z</time>
      </trkpt>
      <trkpt lat="45.27387" lon="4.47063">
        <ele>1191.69</ele>
        <time>2018-10-15T09:56:42Z</time>
      </trkpt>
      <trkpt lat="45.27386" lon="4.4706">
        <ele>1190.73</ele>
        <time>2018-10-15T09:57:10Z</time>
      </trkpt>
      <trkpt lat="45.27385" lon="4.4706">
        <ele>1191.69</ele>
        <time>2018-10-15T09:57:41Z</time>
      </trkpt>
      <trkpt lat="45.27382" lon="4.47055">
        <ele>1191.21</ele>
        <time>2018-10-15T09:58:16Z</time>
      </trkpt>
      <trkpt lat="45.27387" lon="4.47058">
        <ele>1190.25</ele>
        <time>2018-10-15T09:58:46Z</time>
      </trkpt>
      <trkpt lat="45.27384" lon="4.47057">
        <ele>1191.21</ele>
        <time>2018-10-15T09:59:18Z</time>
      </trkpt>
      <trkpt lat="45.27386" lon="4.47059">
        <ele>1191.21</ele>
        <time>2018-10-15T09:59:50Z</time>
      </trkpt>
      <trkpt lat="45.27384" lon="4.47059">
        <ele>1190.73</ele>
        <time>2018-10-15T10:00:26Z</time>
      </trkpt>
      <trkpt lat="45.27388" lon="4.47061">
        <ele>1190.73</ele>
        <time>2018-10-15T10:01:09Z</time>
      </trkpt>
      <trkpt lat="45.27382" lon="4.4706">
        <ele>1192.65</ele>
        <time>2018-10-15T10:01:46Z</time>
      </trkpt>
      <trkpt lat="45.27382" lon="4.47065">
        <ele>1192.17</ele>
        <time>2018-10-15T10:02:21Z</time>
      </trkpt>
      <trkpt lat="45.27382" lon="4.47066">
        <ele>1192.17</ele>
        <time>2018-10-15T10:02:54Z</time>
      </trkpt>
      <trkpt lat="45.27383" lon="4.47069">
        <ele>1191.69</ele>
        <time>2018-10-15T10:03:25Z</time>
      </trkpt>
      <trkpt lat="45.27384" lon="4.47061">
        <ele>1191.69</ele>
        <time>2018-10-15T10:04:00Z</time>
      </trkpt>
      <trkpt lat="45.27384" lon="4.47072">
        <ele>1191.69</ele>
        <time>2018-10-15T10:04:27Z</time>
      </trkpt>
      <trkpt lat="45.2739" lon="4.4707">
        <ele>1191.69</ele>
        <time>2018-10-15T10:04:52Z</time>
      </trkpt>
      <trkpt lat="45.27389" lon="4.47065">
        <ele>1190.73</ele>
        <time>2018-10-15T10:05:18Z</time>
      </trkpt>
      <trkpt lat="45.27388" lon="4.47065">
        <ele>1191.69</ele>
        <time>2018-10-15T10:05:45Z</time>
      </trkpt>
      <trkpt lat="45.27393" lon="4.47067">
        <ele>1191.69</ele>
        <time>2018-10-15T10:06:12Z</time>
      </trkpt>
      <trkpt lat="45.27386" lon="4.4708">
        <ele>1191.69</ele>
        <time>2018-10-15T10:06:40Z</time>
      </trkpt>
      <trkpt lat="45.27384" lon="4.47059">
        <ele>1190.25</ele>
        <time>2018-10-15T10:06:58Z</time>
      </trkpt>
      <trkpt lat="45.27383" lon="4.47067">
        <ele>1191.21</ele>
        <time>2018-10-15T10:07:21Z</time>
      </trkpt>
      <trkpt lat="45.27382" lon="4.47062">
        <ele>1191.69</ele>
        <time>2018-10-15T10:07:39Z</time>
      </trkpt>
      <trkpt lat="45.27382" lon="4.47063">
        <ele>1192.17</ele>
        <time>2018-10-15T10:08:03Z</time>
      </trkpt>
      <trkpt lat="45.27384" lon="4.4706">
        <ele>1190.73</ele>
        <time>2018-10-15T10:08:42Z</time>
      </trkpt>
      <trkpt lat="45.27391" lon="4.47076">
        <ele>1190.73</ele>
        <time>2018-10-15T10:08:58Z</time>
      </trkpt>
      <trkpt lat="45.27395" lon="4.4709">
        <ele>1191.21</ele>
        <time>2018-10-15T10:09:16Z</time>
      </trkpt>
      <trkpt lat="45.274" lon="4.47106">
        <ele>1190.73</ele>
        <time>2018-10-15T10:09:32Z</time>
      </trkpt>
      <trkpt lat="45.27406" lon="4.47128">
        <ele>1189.29</ele>
        <time>2018-10-15T10:09:50Z</time>
      </trkpt>
      <trkpt lat="45.27411" lon="4.47149">
        <ele>1187.37</ele>
        <time>2018-10-15T10:10:09Z</time>
      </trkpt>
      <trkpt lat="45.27413" lon="4.47145">
        <ele>1187.85</ele>
        <time>2018-10-15T10:10:28Z</time>
      </trkpt>
      <trkpt lat="45.27405" lon="4.4712">
        <ele>1189.77</ele>
        <time>2018-10-15T10:10:44Z</time>
      </trkpt>
      <trkpt lat="45.27399" lon="4.47095">
        <ele>1190.73</ele>
        <time>2018-10-15T10:11:02Z</time>
      </trkpt>
      <trkpt lat="45.27398" lon="4.47075">
        <ele>1191.21</ele>
        <time>2018-10-15T10:11:20Z</time>
      </trkpt>
      <trkpt lat="45.27411" lon="4.47086">
        <ele>1190.25</ele>
        <time>2018-10-15T10:11:35Z</time>
      </trkpt>
      <trkpt lat="45.27426" lon="4.47091">
        <ele>1188.33</ele>
        <time>2018-10-15T10:11:51Z</time>
      </trkpt>
      <trkpt lat="45.27441" lon="4.471">
        <ele>1185.92</ele>
        <time>2018-10-15T10:12:07Z</time>
      </trkpt>
      <trkpt lat="45.27447" lon="4.47105">
        <ele>1184.48</ele>
        <time>2018-10-15T10:12:15Z</time>
      </trkpt>
      <trkpt lat="45.27463" lon="4.47113">
        <ele>1183.04</ele>
        <time>2018-10-15T10:12:33Z</time>
      </trkpt>
      <trkpt lat="45.27472" lon="4.47127">
        <ele>1181.6</ele>
        <time>2018-10-15T10:12:47Z</time>
      </trkpt>
      <trkpt lat="45.27483" lon="4.47142">
        <ele>1178.71</ele>
        <time>2018-10-15T10:13:05Z</time>
      </trkpt>
      <trkpt lat="45.27487" lon="4.47154">
        <ele>1177.27</ele>
        <time>2018-10-15T10:13:20Z</time>
      </trkpt>
      <trkpt lat="45.27492" lon="4.47185">
        <ele>1175.83</ele>
        <time>2018-10-15T10:13:43Z</time>
      </trkpt>
      <trkpt lat="45.27497" lon="4.4721">
        <ele>1172.47</ele>
        <time>2018-10-15T10:14:04Z</time>
      </trkpt>
      <trkpt lat="45.275" lon="4.47228">
        <ele>1170.54</ele>
        <time>2018-10-15T10:14:24Z</time>
      </trkpt>
      <trkpt lat="45.275" lon="4.47248">
        <ele>1167.66</ele>
        <time>2018-10-15T10:14:43Z</time>
      </trkpt>
      <trkpt lat="45.27499" lon="4.47276">
        <ele>1165.74</ele>
        <time>2018-10-15T10:15:05Z</time>
      </trkpt>
      <trkpt lat="45.27489" lon="4.4729">
        <ele>1162.85</ele>
        <time>2018-10-15T10:15:22Z</time>
      </trkpt>
      <trkpt lat="45.27475" lon="4.47292">
        <ele>1162.37</ele>
        <time>2018-10-15T10:15:40Z</time>
      </trkpt>
      <trkpt lat="45.27456" lon="4.47301">
        <ele>1162.85</ele>
        <time>2018-10-15T10:15:59Z</time>
      </trkpt>
      <trkpt lat="45.27439" lon="4.47309">
        <ele>1162.85</ele>
        <time>2018-10-15T10:16:18Z</time>
      </trkpt>
      <trkpt lat="45.27421" lon="4.47313">
        <ele>1164.29</ele>
        <time>2018-10-15T10:16:37Z</time>
      </trkpt>
      <trkpt lat="45.27395" lon="4.47312">
        <ele>1165.74</ele>
        <time>2018-10-15T10:17:02Z</time>
      </trkpt>
      <trkpt lat="45.27373" lon="4.47317">
        <ele>1165.26</ele>
        <time>2018-10-15T10:17:23Z</time>
      </trkpt>
      <trkpt lat="45.27353" lon="4.47317">
        <ele>1166.22</ele>
        <time>2018-10-15T10:17:43Z</time>
      </trkpt>
      <trkpt lat="45.27333" lon="4.47312">
        <ele>1168.14</ele>
        <time>2018-10-15T10:18:02Z</time>
      </trkpt>
      <trkpt lat="45.27311" lon="4.47311">
        <ele>1169.58</ele>
        <time>2018-10-15T10:18:23Z</time>
      </trkpt>
      <trkpt lat="45.27287" lon="4.47304">
        <ele>1167.18</ele>
        <time>2018-10-15T10:18:45Z</time>
      </trkpt>
      <trkpt lat="45.27266" lon="4.47293">
        <ele>1164.29</ele>
        <time>2018-10-15T10:19:07Z</time>
      </trkpt>
      <trkpt lat="45.27242" lon="4.4728">
        <ele>1163.81</ele>
        <time>2018-10-15T10:19:31Z</time>
      </trkpt>
      <trkpt lat="45.27229" lon="4.47271">
        <ele>1162.85</ele>
        <time>2018-10-15T10:19:48Z</time>
      </trkpt>
      <trkpt lat="45.27208" lon="4.4725">
        <ele>1161.89</ele>
        <time>2018-10-15T10:20:10Z</time>
      </trkpt>
      <trkpt lat="45.27192" lon="4.47231">
        <ele>1159.97</ele>
        <time>2018-10-15T10:20:30Z</time>
      </trkpt>
      <trkpt lat="45.27181" lon="4.47208">
        <ele>1158.53</ele>
        <time>2018-10-15T10:20:50Z</time>
      </trkpt>
      <trkpt lat="45.27179" lon="4.47201">
        <ele>1159.01</ele>
        <time>2018-10-15T10:20:55Z</time>
      </trkpt>
      <trkpt lat="45.27167" lon="4.47177">
        <ele>1158.53</ele>
        <time>2018-10-15T10:21:13Z</time>
      </trkpt>
      <trkpt lat="45.27163" lon="4.47147">
        <ele>1161.41</ele>
        <time>2018-10-15T10:21:34Z</time>
      </trkpt>
      <trkpt lat="45.2716" lon="4.4712">
        <ele>1159.01</ele>
        <time>2018-10-15T10:21:53Z</time>
      </trkpt>
      <trkpt lat="45.27168" lon="4.47132">
        <ele>1159.97</ele>
        <time>2018-10-15T10:22:06Z</time>
      </trkpt>
      <trkpt lat="45.27171" lon="4.47146">
        <ele>1160.45</ele>
        <time>2018-10-15T10:22:23Z</time>
      </trkpt>
      <trkpt lat="45.27176" lon="4.47159">
        <ele>1161.89</ele>
        <time>2018-10-15T10:22:41Z</time>
      </trkpt>
      <trkpt lat="45.27186" lon="4.47177">
        <ele>1162.37</ele>
        <time>2018-10-15T10:23:01Z</time>
      </trkpt>
      <trkpt lat="45.272" lon="4.47199">
        <ele>1163.81</ele>
        <time>2018-10-15T10:23:24Z</time>
      </trkpt>
      <trkpt lat="45.27212" lon="4.47208">
        <ele>1165.74</ele>
        <time>2018-10-15T10:23:40Z</time>
      </trkpt>
      <trkpt lat="45.27214" lon="4.4721">
        <ele>1167.18</ele>
        <time>2018-10-15T10:23:43Z</time>
      </trkpt>
      <trkpt lat="45.27227" lon="4.47222">
        <ele>1167.18</ele>
        <time>2018-10-15T10:24:03Z</time>
      </trkpt>
      <trkpt lat="45.2724" lon="4.47229">
        <ele>1170.06</ele>
        <time>2018-10-15T10:24:17Z</time>
      </trkpt>
      <trkpt lat="45.27255" lon="4.47237">
        <ele>1171.02</ele>
        <time>2018-10-15T10:24:42Z</time>
      </trkpt>
      <trkpt lat="45.27251" lon="4.47203">
        <ele>1173.43</ele>
        <time>2018-10-15T10:25:06Z</time>
      </trkpt>
      <trkpt lat="45.2726" lon="4.47196">
        <ele>1176.79</ele>
        <time>2018-10-15T10:25:31Z</time>
      </trkpt>
      <trkpt lat="45.27269" lon="4.47184">
        <ele>1179.67</ele>
        <time>2018-10-15T10:25:51Z</time>
      </trkpt>
      <trkpt lat="45.27271" lon="4.47173">
        <ele>1181.12</ele>
        <time>2018-10-15T10:26:18Z</time>
      </trkpt>
      <trkpt lat="45.27268" lon="4.47179">
        <ele>1180.16</ele>
        <time>2018-10-15T10:26:44Z</time>
      </trkpt>
      <trkpt lat="45.2727" lon="4.47173">
        <ele>1180.16</ele>
        <time>2018-10-15T10:27:05Z</time>
      </trkpt>
      <trkpt lat="45.27267" lon="4.47173">
        <ele>1180.64</ele>
        <time>2018-10-15T10:27:37Z</time>
      </trkpt>
      <trkpt lat="45.27263" lon="4.47174">
        <ele>1180.16</ele>
        <time>2018-10-15T10:27:56Z</time>
      </trkpt>
      <trkpt lat="45.27267" lon="4.47169">
        <ele>1181.6</ele>
        <time>2018-10-15T10:28:14Z</time>
      </trkpt>
      <trkpt lat="45.27268" lon="4.47168">
        <ele>1183.52</ele>
        <time>2018-10-15T10:28:44Z</time>
      </trkpt>
      <trkpt lat="45.27267" lon="4.47169">
        <ele>1183.04</ele>
        <time>2018-10-15T10:29:08Z</time>
      </trkpt>
      <trkpt lat="45.27268" lon="4.47169">
        <ele>1184</ele>
        <time>2018-10-15T10:29:25Z</time>
      </trkpt>
      <trkpt lat="45.27264" lon="4.47165">
        <ele>1184</ele>
        <time>2018-10-15T10:29:50Z</time>
      </trkpt>
      <trkpt lat="45.2726" lon="4.47164">
        <ele>1182.08</ele>
        <time>2018-10-15T10:30:13Z</time>
      </trkpt>
      <trkpt lat="45.27259" lon="4.47164">
        <ele>1179.67</ele>
        <time>2018-10-15T10:30:28Z</time>
      </trkpt>
      <trkpt lat="45.27264" lon="4.47154">
        <ele>1181.6</ele>
        <time>2018-10-15T10:30:45Z</time>
      </trkpt>
      <trkpt lat="45.27266" lon="4.47155">
        <ele>1182.08</ele>
        <time>2018-10-15T10:31:10Z</time>
      </trkpt>
      <trkpt lat="45.27269" lon="4.47154">
        <ele>1183.04</ele>
        <time>2018-10-15T10:31:29Z</time>
      </trkpt>
      <trkpt lat="45.2727" lon="4.47153">
        <ele>1184.96</ele>
        <time>2018-10-15T10:31:46Z</time>
      </trkpt>
      <trkpt lat="45.27272" lon="4.4715">
        <ele>1185.92</ele>
        <time>2018-10-15T10:32:01Z</time>
      </trkpt>
      <trkpt lat="45.27273" lon="4.47156">
        <ele>1187.37</ele>
        <time>2018-10-15T10:32:18Z</time>
      </trkpt>
      <trkpt lat="45.27271" lon="4.47154">
        <ele>1188.33</ele>
        <time>2018-10-15T10:32:35Z</time>
      </trkpt>
      <trkpt lat="45.27269" lon="4.47161">
        <ele>1188.33</ele>
        <time>2018-10-15T10:33:00Z</time>
      </trkpt>
      <trkpt lat="45.2727" lon="4.47153">
        <ele>1189.29</ele>
        <time>2018-10-15T10:33:21Z</time>
      </trkpt>
      <trkpt lat="45.27269" lon="4.47153">
        <ele>1188.81</ele>
        <time>2018-10-15T10:33:49Z</time>
      </trkpt>
      <trkpt lat="45.27266" lon="4.47152">
        <ele>1188.81</ele>
        <time>2018-10-15T10:34:20Z</time>
      </trkpt>
      <trkpt lat="45.27268" lon="4.47165">
        <ele>1187.85</ele>
        <time>2018-10-15T10:34:39Z</time>
      </trkpt>
      <trkpt lat="45.27275" lon="4.47173">
        <ele>1185.92</ele>
        <time>2018-10-15T10:34:59Z</time>
      </trkpt>
      <trkpt lat="45.27268" lon="4.4717">
        <ele>1185.92</ele>
        <time>2018-10-15T10:35:19Z</time>
      </trkpt>
      <trkpt lat="45.2727" lon="4.4718">
        <ele>1184</ele>
        <time>2018-10-15T10:35:44Z</time>
      </trkpt>
      <trkpt lat="45.27267" lon="4.47181">
        <ele>1182.56</ele>
        <time>2018-10-15T10:36:04Z</time>
      </trkpt>
      <trkpt lat="45.27267" lon="4.47175">
        <ele>1181.12</ele>
        <time>2018-10-15T10:36:25Z</time>
      </trkpt>
      <trkpt lat="45.27263" lon="4.47181">
        <ele>1181.12</ele>
        <time>2018-10-15T10:36:48Z</time>
      </trkpt>
      <trkpt lat="45.2727" lon="4.47182">
        <ele>1181.6</ele>
        <time>2018-10-15T10:37:13Z</time>
      </trkpt>
      <trkpt lat="45.2727" lon="4.47179">
        <ele>1179.67</ele>
        <time>2018-10-15T10:37:36Z</time>
      </trkpt>
      <trkpt lat="45.27258" lon="4.4718">
        <ele>1178.23</ele>
        <time>2018-10-15T10:37:59Z</time>
      </trkpt>
      <trkpt lat="45.27253" lon="4.47186">
        <ele>1178.23</ele>
        <time>2018-10-15T10:38:33Z</time>
      </trkpt>
      <trkpt lat="45.27251" lon="4.47191">
        <ele>1176.31</ele>
        <time>2018-10-15T10:38:40Z</time>
      </trkpt>
      <trkpt lat="45.27246" lon="4.47201">
        <ele>1173.43</ele>
        <time>2018-10-15T10:38:54Z</time>
      </trkpt>
      <trkpt lat="45.27253" lon="4.47215">
        <ele>1171.5</ele>
        <time>2018-10-15T10:39:14Z</time>
      </trkpt>
      <trkpt lat="45.27256" lon="4.47218">
        <ele>1171.98</ele>
        <time>2018-10-15T10:39:48Z</time>
      </trkpt>
      <trkpt lat="45.27249" lon="4.4723">
        <ele>1169.1</ele>
        <time>2018-10-15T10:40:04Z</time>
      </trkpt>
      <trkpt lat="45.27242" lon="4.47232">
        <ele>1168.62</ele>
        <time>2018-10-15T10:40:15Z</time>
      </trkpt>
      <trkpt lat="45.27233" lon="4.4722">
        <ele>1166.22</ele>
        <time>2018-10-15T10:40:31Z</time>
      </trkpt>
      <trkpt lat="45.27217" lon="4.47208">
        <ele>1163.81</ele>
        <time>2018-10-15T10:40:50Z</time>
      </trkpt>
      <trkpt lat="45.27204" lon="4.47197">
        <ele>1163.81</ele>
        <time>2018-10-15T10:41:05Z</time>
      </trkpt>
      <trkpt lat="45.27194" lon="4.47184">
        <ele>1161.89</ele>
        <time>2018-10-15T10:41:23Z</time>
      </trkpt>
      <trkpt lat="45.27183" lon="4.47172">
        <ele>1160.93</ele>
        <time>2018-10-15T10:41:39Z</time>
      </trkpt>
      <trkpt lat="45.27173" lon="4.4715">
        <ele>1159.01</ele>
        <time>2018-10-15T10:41:58Z</time>
      </trkpt>
      <trkpt lat="45.27173" lon="4.47129">
        <ele>1159.01</ele>
        <time>2018-10-15T10:42:19Z</time>
      </trkpt>
      <trkpt lat="45.27181" lon="4.47109">
        <ele>1161.89</ele>
        <time>2018-10-15T10:42:42Z</time>
      </trkpt>
      <trkpt lat="45.27189" lon="4.4709">
        <ele>1163.81</ele>
        <time>2018-10-15T10:43:05Z</time>
      </trkpt>
      <trkpt lat="45.27197" lon="4.47071">
        <ele>1166.7</ele>
        <time>2018-10-15T10:43:24Z</time>
      </trkpt>
      <trkpt lat="45.27204" lon="4.4705">
        <ele>1168.14</ele>
        <time>2018-10-15T10:43:51Z</time>
      </trkpt>
      <trkpt lat="45.27212" lon="4.4703">
        <ele>1171.02</ele>
        <time>2018-10-15T10:44:14Z</time>
      </trkpt>
      <trkpt lat="45.27216" lon="4.47017">
        <ele>1171.5</ele>
        <time>2018-10-15T10:44:40Z</time>
      </trkpt>
      <trkpt lat="45.27228" lon="4.46987">
        <ele>1173.43</ele>
        <time>2018-10-15T10:45:01Z</time>
      </trkpt>
      <trkpt lat="45.27231" lon="4.46968">
        <ele>1176.31</ele>
        <time>2018-10-15T10:45:18Z</time>
      </trkpt>
      <trkpt lat="45.27227" lon="4.46948">
        <ele>1176.31</ele>
        <time>2018-10-15T10:45:35Z</time>
      </trkpt>
      <trkpt lat="45.27228" lon="4.46926">
        <ele>1176.31</ele>
        <time>2018-10-15T10:45:53Z</time>
      </trkpt>
      <trkpt lat="45.27229" lon="4.46904">
        <ele>1176.79</ele>
        <time>2018-10-15T10:46:10Z</time>
      </trkpt>
      <trkpt lat="45.27234" lon="4.46885">
        <ele>1178.23</ele>
        <time>2018-10-15T10:46:30Z</time>
      </trkpt>
      <trkpt lat="45.27241" lon="4.46868">
        <ele>1179.67</ele>
        <time>2018-10-15T10:46:47Z</time>
      </trkpt>
      <trkpt lat="45.27251" lon="4.46855">
        <ele>1180.64</ele>
        <time>2018-10-15T10:47:05Z</time>
      </trkpt>
      <trkpt lat="45.27258" lon="4.46846">
        <ele>1182.08</ele>
        <time>2018-10-15T10:47:22Z</time>
      </trkpt>
      <trkpt lat="45.27273" lon="4.46833">
        <ele>1183.04</ele>
        <time>2018-10-15T10:47:40Z</time>
      </trkpt>
      <trkpt lat="45.2729" lon="4.46821">
        <ele>1182.56</ele>
        <time>2018-10-15T10:47:57Z</time>
      </trkpt>
      <trkpt lat="45.27294" lon="4.4682">
        <ele>1183.04</ele>
        <time>2018-10-15T10:48:11Z</time>
      </trkpt>
      <trkpt lat="45.27309" lon="4.46827">
        <ele>1184.48</ele>
        <time>2018-10-15T10:48:33Z</time>
      </trkpt>
      <trkpt lat="45.27325" lon="4.46838">
        <ele>1184.48</ele>
        <time>2018-10-15T10:48:54Z</time>
      </trkpt>
      <trkpt lat="45.27337" lon="4.46824">
        <ele>1184.48</ele>
        <time>2018-10-15T10:49:15Z</time>
      </trkpt>
      <trkpt lat="45.27344" lon="4.46804">
        <ele>1184.96</ele>
        <time>2018-10-15T10:49:34Z</time>
      </trkpt>
      <trkpt lat="45.2735" lon="4.46781">
        <ele>1184.48</ele>
        <time>2018-10-15T10:49:55Z</time>
      </trkpt>
      <trkpt lat="45.27362" lon="4.46762">
        <ele>1183.52</ele>
        <time>2018-10-15T10:50:15Z</time>
      </trkpt>
      <trkpt lat="45.27371" lon="4.46742">
        <ele>1183.52</ele>
        <time>2018-10-15T10:50:31Z</time>
      </trkpt>
      <trkpt lat="45.27388" lon="4.46728">
        <ele>1184</ele>
        <time>2018-10-15T10:50:50Z</time>
      </trkpt>
      <trkpt lat="45.2739" lon="4.46726">
        <ele>1184.48</ele>
        <time>2018-10-15T10:51:08Z</time>
      </trkpt>
      <trkpt lat="45.27391" lon="4.46726">
        <ele>1184.48</ele>
        <time>2018-10-15T10:51:32Z</time>
      </trkpt>
      <trkpt lat="45.27402" lon="4.46716">
        <ele>1185.92</ele>
        <time>2018-10-15T10:51:46Z</time>
      </trkpt>
      <trkpt lat="45.27416" lon="4.46705">
        <ele>1185.44</ele>
        <time>2018-10-15T10:52:05Z</time>
      </trkpt>
      <trkpt lat="45.27432" lon="4.4669">
        <ele>1183.04</ele>
        <time>2018-10-15T10:52:24Z</time>
      </trkpt>
      <trkpt lat="45.27443" lon="4.46674">
        <ele>1184.48</ele>
        <time>2018-10-15T10:52:43Z</time>
      </trkpt>
      <trkpt lat="45.27443" lon="4.46648">
        <ele>1185.44</ele>
        <time>2018-10-15T10:53:03Z</time>
      </trkpt>
      <trkpt lat="45.27445" lon="4.46624">
        <ele>1187.37</ele>
        <time>2018-10-15T10:53:23Z</time>
      </trkpt>
      <trkpt lat="45.27445" lon="4.46608">
        <ele>1187.85</ele>
        <time>2018-10-15T10:53:35Z</time>
      </trkpt>
      <trkpt lat="45.27443" lon="4.46589">
        <ele>1189.29</ele>
        <time>2018-10-15T10:53:51Z</time>
      </trkpt>
      <trkpt lat="45.2744" lon="4.46573">
        <ele>1191.21</ele>
        <time>2018-10-15T10:54:06Z</time>
      </trkpt>
      <trkpt lat="45.27437" lon="4.46552">
        <ele>1193.13</ele>
        <time>2018-10-15T10:54:23Z</time>
      </trkpt>
      <trkpt lat="45.27436" lon="4.46548">
        <ele>1192.65</ele>
        <time>2018-10-15T10:54:27Z</time>
      </trkpt>
      <trkpt lat="45.2743" lon="4.46527">
        <ele>1193.13</ele>
        <time>2018-10-15T10:54:45Z</time>
      </trkpt>
      <trkpt lat="45.27427" lon="4.46513">
        <ele>1194.09</ele>
        <time>2018-10-15T10:55:00Z</time>
      </trkpt>
      <trkpt lat="45.2742" lon="4.46491">
        <ele>1194.09</ele>
        <time>2018-10-15T10:55:17Z</time>
      </trkpt>
      <trkpt lat="45.2741" lon="4.46469">
        <ele>1195.06</ele>
        <time>2018-10-15T10:55:34Z</time>
      </trkpt>
      <trkpt lat="45.27401" lon="4.4645">
        <ele>1193.61</ele>
        <time>2018-10-15T10:55:49Z</time>
      </trkpt>
      <trkpt lat="45.274" lon="4.46443">
        <ele>1194.09</ele>
        <time>2018-10-15T10:56:05Z</time>
      </trkpt>
      <trkpt lat="45.27395" lon="4.46437">
        <ele>1195.06</ele>
        <time>2018-10-15T10:56:10Z</time>
      </trkpt>
      <trkpt lat="45.2739" lon="4.46427">
        <ele>1191.69</ele>
        <time>2018-10-15T10:56:28Z</time>
      </trkpt>
      <trkpt lat="45.2739" lon="4.46427">
        <ele>1193.13</ele>
        <time>2018-10-15T10:56:29Z</time>
      </trkpt>
      <trkpt lat="45.2739" lon="4.46427">
        <ele>1195.06</ele>
        <time>2018-10-15T10:56:33Z</time>
      </trkpt>
      <trkpt lat="45.27391" lon="4.46427">
        <ele>1196.98</ele>
        <time>2018-10-15T10:56:46Z</time>
      </trkpt>
      <trkpt lat="45.27392" lon="4.46426">
        <ele>1192.65</ele>
        <time>2018-10-15T10:56:49Z</time>
      </trkpt>
      <trkpt lat="45.27392" lon="4.46426">
        <ele>1193.61</ele>
        <time>2018-10-15T10:56:50Z</time>
      </trkpt>
      <trkpt lat="45.27385" lon="4.46428">
        <ele>1195.06</ele>
        <time>2018-10-15T10:57:11Z</time>
      </trkpt>
      <trkpt lat="45.27387" lon="4.46427">
        <ele>1193.61</ele>
        <time>2018-10-15T10:57:20Z</time>
      </trkpt>
      <trkpt lat="45.27401" lon="4.46422">
        <ele>1194.58</ele>
        <time>2018-10-15T10:57:36Z</time>
      </trkpt>
      <trkpt lat="45.27413" lon="4.46417">
        <ele>1196.5</ele>
        <time>2018-10-15T10:57:51Z</time>
      </trkpt>
      <trkpt lat="45.27429" lon="4.46407">
        <ele>1197.94</ele>
        <time>2018-10-15T10:58:13Z</time>
      </trkpt>
      <trkpt lat="45.2744" lon="4.46403">
        <ele>1199.38</ele>
        <time>2018-10-15T10:58:30Z</time>
      </trkpt>
      <trkpt lat="45.27457" lon="4.46402">
        <ele>1199.38</ele>
        <time>2018-10-15T10:58:47Z</time>
      </trkpt>
      <trkpt lat="45.27471" lon="4.46399">
        <ele>1200.34</ele>
        <time>2018-10-15T10:59:05Z</time>
      </trkpt>
      <trkpt lat="45.27485" lon="4.46394">
        <ele>1202.75</ele>
        <time>2018-10-15T10:59:23Z</time>
      </trkpt>
      <trkpt lat="45.27497" lon="4.46395">
        <ele>1200.82</ele>
        <time>2018-10-15T10:59:40Z</time>
      </trkpt>
      <trkpt lat="45.275" lon="4.46394">
        <ele>1200.34</ele>
        <time>2018-10-15T10:59:44Z</time>
      </trkpt>
      <trkpt lat="45.27508" lon="4.46394">
        <ele>1203.23</ele>
        <time>2018-10-15T10:59:53Z</time>
      </trkpt>
      <trkpt lat="45.27527" lon="4.46399">
        <ele>1203.71</ele>
        <time>2018-10-15T11:00:15Z</time>
      </trkpt>
      <trkpt lat="45.27538" lon="4.46401">
        <ele>1206.59</ele>
        <time>2018-10-15T11:00:28Z</time>
      </trkpt>
      <trkpt lat="45.27539" lon="4.46402">
        <ele>1207.07</ele>
        <time>2018-10-15T11:00:29Z</time>
      </trkpt>
      <trkpt lat="45.27543" lon="4.46403">
        <ele>1203.71</ele>
        <time>2018-10-15T11:00:34Z</time>
      </trkpt>
      <trkpt lat="45.27559" lon="4.46412">
        <ele>1205.15</ele>
        <time>2018-10-15T11:00:52Z</time>
      </trkpt>
      <trkpt lat="45.27563" lon="4.46411">
        <ele>1205.63</ele>
        <time>2018-10-15T11:01:09Z</time>
      </trkpt>
      <trkpt lat="45.27567" lon="4.46413">
        <ele>1205.63</ele>
        <time>2018-10-15T11:01:27Z</time>
      </trkpt>
      <trkpt lat="45.2757" lon="4.46411">
        <ele>1206.59</ele>
        <time>2018-10-15T11:01:55Z</time>
      </trkpt>
      <trkpt lat="45.2757" lon="4.46409">
        <ele>1207.07</ele>
        <time>2018-10-15T11:02:12Z</time>
      </trkpt>
      <trkpt lat="45.27569" lon="4.46413">
        <ele>1205.63</ele>
        <time>2018-10-15T11:02:29Z</time>
      </trkpt>
      <trkpt lat="45.2757" lon="4.46415">
        <ele>1207.55</ele>
        <time>2018-10-15T11:02:33Z</time>
      </trkpt>
      <trkpt lat="45.27569" lon="4.46413">
        <ele>1207.07</ele>
        <time>2018-10-15T11:02:49Z</time>
      </trkpt>
      <trkpt lat="45.2758" lon="4.46422">
        <ele>1207.55</ele>
        <time>2018-10-15T11:03:04Z</time>
      </trkpt>
      <trkpt lat="45.27593" lon="4.4643">
        <ele>1208.51</ele>
        <time>2018-10-15T11:03:23Z</time>
      </trkpt>
      <trkpt lat="45.27596" lon="4.46436">
        <ele>1209.96</ele>
        <time>2018-10-15T11:03:44Z</time>
      </trkpt>
      <trkpt lat="45.27598" lon="4.46456">
        <ele>1209.96</ele>
        <time>2018-10-15T11:04:00Z</time>
      </trkpt>
      <trkpt lat="45.27597" lon="4.46477">
        <ele>1209.96</ele>
        <time>2018-10-15T11:04:18Z</time>
      </trkpt>
      <trkpt lat="45.27597" lon="4.46482">
        <ele>1211.88</ele>
        <time>2018-10-15T11:04:22Z</time>
      </trkpt>
      <trkpt lat="45.27597" lon="4.46499">
        <ele>1212.84</ele>
        <time>2018-10-15T11:04:35Z</time>
      </trkpt>
      <trkpt lat="45.27596" lon="4.46528">
        <ele>1211.88</ele>
        <time>2018-10-15T11:04:55Z</time>
      </trkpt>
      <trkpt lat="45.27598" lon="4.46559">
        <ele>1212.36</ele>
        <time>2018-10-15T11:05:16Z</time>
      </trkpt>
      <trkpt lat="45.27598" lon="4.4656">
        <ele>1212.84</ele>
        <time>2018-10-15T11:05:17Z</time>
      </trkpt>
      <trkpt lat="45.27597" lon="4.46564">
        <ele>1212.36</ele>
        <time>2018-10-15T11:05:32Z</time>
      </trkpt>
      <trkpt lat="45.27598" lon="4.46558">
        <ele>1213.32</ele>
        <time>2018-10-15T11:05:49Z</time>
      </trkpt>
      <trkpt lat="45.276" lon="4.4656">
        <ele>1212.36</ele>
        <time>2018-10-15T11:06:10Z</time>
      </trkpt>
      <trkpt lat="45.27599" lon="4.46559">
        <ele>1215.72</ele>
        <time>2018-10-15T11:06:29Z</time>
      </trkpt>
      <trkpt lat="45.27599" lon="4.46558">
        <ele>1215.72</ele>
        <time>2018-10-15T11:06:30Z</time>
      </trkpt>
      <trkpt lat="45.27599" lon="4.46552">
        <ele>1213.32</ele>
        <time>2018-10-15T11:06:40Z</time>
      </trkpt>
      <trkpt lat="45.27595" lon="4.46521">
        <ele>1213.8</ele>
        <time>2018-10-15T11:07:02Z</time>
      </trkpt>
      <trkpt lat="45.27597" lon="4.46488">
        <ele>1212.36</ele>
        <time>2018-10-15T11:07:25Z</time>
      </trkpt>
      <trkpt lat="45.27599" lon="4.46467">
        <ele>1210.92</ele>
        <time>2018-10-15T11:07:44Z</time>
      </trkpt>
      <trkpt lat="45.27599" lon="4.4646">
        <ele>1211.4</ele>
        <time>2018-10-15T11:07:49Z</time>
      </trkpt>
      <trkpt lat="45.27597" lon="4.46428">
        <ele>1210.44</ele>
        <time>2018-10-15T11:08:12Z</time>
      </trkpt>
      <trkpt lat="45.276" lon="4.46428">
        <ele>1210.44</ele>
        <time>2018-10-15T11:08:29Z</time>
      </trkpt>
      <trkpt lat="45.27599" lon="4.46431">
        <ele>1210.44</ele>
        <time>2018-10-15T11:08:56Z</time>
      </trkpt>
      <trkpt lat="45.276" lon="4.46428">
        <ele>1210.92</ele>
        <time>2018-10-15T11:09:20Z</time>
      </trkpt>
      <trkpt lat="45.27596" lon="4.4643">
        <ele>1209.48</ele>
        <time>2018-10-15T11:09:33Z</time>
      </trkpt>
      <trkpt lat="45.27592" lon="4.46437">
        <ele>1209.96</ele>
        <time>2018-10-15T11:09:48Z</time>
      </trkpt>
      <trkpt lat="45.27597" lon="4.4646">
        <ele>1210.44</ele>
        <time>2018-10-15T11:10:08Z</time>
      </trkpt>
      <trkpt lat="45.27598" lon="4.46477">
        <ele>1211.88</ele>
        <time>2018-10-15T11:10:18Z</time>
      </trkpt>
      <trkpt lat="45.27596" lon="4.46503">
        <ele>1212.36</ele>
        <time>2018-10-15T11:10:36Z</time>
      </trkpt>
      <trkpt lat="45.27595" lon="4.46535">
        <ele>1213.8</ele>
        <time>2018-10-15T11:10:56Z</time>
      </trkpt>
      <trkpt lat="45.27596" lon="4.46559">
        <ele>1214.28</ele>
        <time>2018-10-15T11:11:14Z</time>
      </trkpt>
      <trkpt lat="45.27598" lon="4.4658">
        <ele>1213.8</ele>
        <time>2018-10-15T11:11:29Z</time>
      </trkpt>
      <trkpt lat="45.27601" lon="4.46608">
        <ele>1216.21</ele>
        <time>2018-10-15T11:11:47Z</time>
      </trkpt>
      <trkpt lat="45.27604" lon="4.46643">
        <ele>1215.72</ele>
        <time>2018-10-15T11:12:09Z</time>
      </trkpt>
      <trkpt lat="45.27606" lon="4.46654">
        <ele>1215.72</ele>
        <time>2018-10-15T11:12:17Z</time>
      </trkpt>
      <trkpt lat="45.27607" lon="4.46663">
        <ele>1217.17</ele>
        <time>2018-10-15T11:12:24Z</time>
      </trkpt>
      <trkpt lat="45.27609" lon="4.46689">
        <ele>1216.21</ele>
        <time>2018-10-15T11:12:42Z</time>
      </trkpt>
      <trkpt lat="45.27611" lon="4.46705">
        <ele>1216.69</ele>
        <time>2018-10-15T11:12:53Z</time>
      </trkpt>
      <trkpt lat="45.27613" lon="4.46712">
        <ele>1215.72</ele>
        <time>2018-10-15T11:12:57Z</time>
      </trkpt>
      <trkpt lat="45.27616" lon="4.4673">
        <ele>1216.21</ele>
        <time>2018-10-15T11:13:13Z</time>
      </trkpt>
      <trkpt lat="45.27626" lon="4.46719">
        <ele>1216.21</ele>
        <time>2018-10-15T11:13:28Z</time>
      </trkpt>
      <trkpt lat="45.27627" lon="4.46714">
        <ele>1215.72</ele>
        <time>2018-10-15T11:13:54Z</time>
      </trkpt>
      <trkpt lat="45.27635" lon="4.46699">
        <ele>1217.65</ele>
        <time>2018-10-15T11:14:10Z</time>
      </trkpt>
      <trkpt lat="45.27646" lon="4.46684">
        <ele>1219.57</ele>
        <time>2018-10-15T11:14:29Z</time>
      </trkpt>
      <trkpt lat="45.27655" lon="4.4667">
        <ele>1220.05</ele>
        <time>2018-10-15T11:14:45Z</time>
      </trkpt>
      <trkpt lat="45.27666" lon="4.46656">
        <ele>1221.97</ele>
        <time>2018-10-15T11:15:01Z</time>
      </trkpt>
      <trkpt lat="45.27676" lon="4.46641">
        <ele>1222.93</ele>
        <time>2018-10-15T11:15:20Z</time>
      </trkpt>
      <trkpt lat="45.27683" lon="4.46634">
        <ele>1224.86</ele>
        <time>2018-10-15T11:15:35Z</time>
      </trkpt>
      <trkpt lat="45.27692" lon="4.46621">
        <ele>1224.38</ele>
        <time>2018-10-15T11:15:52Z</time>
      </trkpt>
      <trkpt lat="45.27703" lon="4.46604">
        <ele>1226.78</ele>
        <time>2018-10-15T11:16:09Z</time>
      </trkpt>
      <trkpt lat="45.27714" lon="4.46592">
        <ele>1227.26</ele>
        <time>2018-10-15T11:16:26Z</time>
      </trkpt>
      <trkpt lat="45.27724" lon="4.46583">
        <ele>1229.18</ele>
        <time>2018-10-15T11:16:46Z</time>
      </trkpt>
      <trkpt lat="45.27736" lon="4.46571">
        <ele>1228.7</ele>
        <time>2018-10-15T11:17:03Z</time>
      </trkpt>
      <trkpt lat="45.27751" lon="4.46561">
        <ele>1229.66</ele>
        <time>2018-10-15T11:17:19Z</time>
      </trkpt>
      <trkpt lat="45.27759" lon="4.46553">
        <ele>1230.62</ele>
        <time>2018-10-15T11:17:38Z</time>
      </trkpt>
      <trkpt lat="45.27767" lon="4.46555">
        <ele>1230.14</ele>
        <time>2018-10-15T11:17:57Z</time>
      </trkpt>
      <trkpt lat="45.27785" lon="4.46547">
        <ele>1231.59</ele>
        <time>2018-10-15T11:18:17Z</time>
      </trkpt>
      <trkpt lat="45.27806" lon="4.46533">
        <ele>1231.59</ele>
        <time>2018-10-15T11:18:40Z</time>
      </trkpt>
      <trkpt lat="45.27821" lon="4.46526">
        <ele>1231.59</ele>
        <time>2018-10-15T11:18:58Z</time>
      </trkpt>
      <trkpt lat="45.27834" lon="4.46516">
        <ele>1232.55</ele>
        <time>2018-10-15T11:19:20Z</time>
      </trkpt>
      <trkpt lat="45.27852" lon="4.46513">
        <ele>1234.47</ele>
        <time>2018-10-15T11:19:45Z</time>
      </trkpt>
      <trkpt lat="45.27867" lon="4.46504">
        <ele>1237.35</ele>
        <time>2018-10-15T11:20:06Z</time>
      </trkpt>
      <trkpt lat="45.27887" lon="4.465">
        <ele>1238.8</ele>
        <time>2018-10-15T11:20:28Z</time>
      </trkpt>
      <trkpt lat="45.27904" lon="4.46492">
        <ele>1239.28</ele>
        <time>2018-10-15T11:20:49Z</time>
      </trkpt>
      <trkpt lat="45.27921" lon="4.46492">
        <ele>1240.24</ele>
        <time>2018-10-15T11:21:05Z</time>
      </trkpt>
      <trkpt lat="45.27941" lon="4.46493">
        <ele>1239.76</ele>
        <time>2018-10-15T11:21:28Z</time>
      </trkpt>
      <trkpt lat="45.27959" lon="4.46491">
        <ele>1240.24</ele>
        <time>2018-10-15T11:21:47Z</time>
      </trkpt>
      <trkpt lat="45.27982" lon="4.46485">
        <ele>1240.72</ele>
        <time>2018-10-15T11:22:12Z</time>
      </trkpt>
      <trkpt lat="45.28" lon="4.46485">
        <ele>1240.72</ele>
        <time>2018-10-15T11:22:33Z</time>
      </trkpt>
      <trkpt lat="45.28021" lon="4.46482">
        <ele>1241.2</ele>
        <time>2018-10-15T11:22:53Z</time>
      </trkpt>
      <trkpt lat="45.28043" lon="4.46477">
        <ele>1240.72</ele>
        <time>2018-10-15T11:23:13Z</time>
      </trkpt>
      <trkpt lat="45.28067" lon="4.46467">
        <ele>1241.68</ele>
        <time>2018-10-15T11:23:36Z</time>
      </trkpt>
      <trkpt lat="45.28089" lon="4.4646">
        <ele>1242.64</ele>
        <time>2018-10-15T11:23:56Z</time>
      </trkpt>
      <trkpt lat="45.2811" lon="4.4645">
        <ele>1241.68</ele>
        <time>2018-10-15T11:24:16Z</time>
      </trkpt>
      <trkpt lat="45.28125" lon="4.46446">
        <ele>1241.2</ele>
        <time>2018-10-15T11:24:35Z</time>
      </trkpt>
      <trkpt lat="45.28123" lon="4.46447">
        <ele>1240.24</ele>
        <time>2018-10-15T11:25:00Z</time>
      </trkpt>
      <trkpt lat="45.28136" lon="4.46444">
        <ele>1239.76</ele>
        <time>2018-10-15T11:25:20Z</time>
      </trkpt>
      <trkpt lat="45.28154" lon="4.46447">
        <ele>1239.76</ele>
        <time>2018-10-15T11:25:42Z</time>
      </trkpt>
      <trkpt lat="45.28156" lon="4.46445">
        <ele>1240.24</ele>
        <time>2018-10-15T11:26:13Z</time>
      </trkpt>
      <trkpt lat="45.28175" lon="4.46441">
        <ele>1238.32</ele>
        <time>2018-10-15T11:26:31Z</time>
      </trkpt>
      <trkpt lat="45.28193" lon="4.46444">
        <ele>1237.83</ele>
        <time>2018-10-15T11:26:52Z</time>
      </trkpt>
      <trkpt lat="45.28202" lon="4.46448">
        <ele>1237.83</ele>
        <time>2018-10-15T11:27:01Z</time>
      </trkpt>
      <trkpt lat="45.28219" lon="4.46454">
        <ele>1238.32</ele>
        <time>2018-10-15T11:27:17Z</time>
      </trkpt>
      <trkpt lat="45.28234" lon="4.46459">
        <ele>1238.32</ele>
        <time>2018-10-15T11:27:35Z</time>
      </trkpt>
      <trkpt lat="45.28252" lon="4.46456">
        <ele>1238.32</ele>
        <time>2018-10-15T11:27:54Z</time>
      </trkpt>
      <trkpt lat="45.28255" lon="4.46456">
        <ele>1238.32</ele>
        <time>2018-10-15T11:28:20Z</time>
      </trkpt>
      <trkpt lat="45.28267" lon="4.46469">
        <ele>1237.83</ele>
        <time>2018-10-15T11:28:37Z</time>
      </trkpt>
      <trkpt lat="45.28269" lon="4.46466">
        <ele>1238.32</ele>
        <time>2018-10-15T11:28:57Z</time>
      </trkpt>
      <trkpt lat="45.28269" lon="4.46468">
        <ele>1237.83</ele>
        <time>2018-10-15T11:29:24Z</time>
      </trkpt>
      <trkpt lat="45.28274" lon="4.46474">
        <ele>1237.35</ele>
        <time>2018-10-15T11:29:47Z</time>
      </trkpt>
      <trkpt lat="45.28277" lon="4.46476">
        <ele>1237.83</ele>
        <time>2018-10-15T11:30:05Z</time>
      </trkpt>
      <trkpt lat="45.28279" lon="4.46477">
        <ele>1238.8</ele>
        <time>2018-10-15T11:30:07Z</time>
      </trkpt>
      <trkpt lat="45.2828" lon="4.4648">
        <ele>1236.87</ele>
        <time>2018-10-15T11:30:26Z</time>
      </trkpt>
      <trkpt lat="45.28296" lon="4.46484">
        <ele>1236.87</ele>
        <time>2018-10-15T11:30:44Z</time>
      </trkpt>
      <trkpt lat="45.28316" lon="4.46486">
        <ele>1235.91</ele>
        <time>2018-10-15T11:31:03Z</time>
      </trkpt>
      <trkpt lat="45.28322" lon="4.46486">
        <ele>1239.28</ele>
        <time>2018-10-15T11:31:10Z</time>
      </trkpt>
      <trkpt lat="45.28339" lon="4.46485">
        <ele>1239.76</ele>
        <time>2018-10-15T11:31:26Z</time>
      </trkpt>
      <trkpt lat="45.28354" lon="4.46485">
        <ele>1241.68</ele>
        <time>2018-10-15T11:31:44Z</time>
      </trkpt>
      <trkpt lat="45.28373" lon="4.46485">
        <ele>1244.56</ele>
        <time>2018-10-15T11:32:03Z</time>
      </trkpt>
      <trkpt lat="45.28387" lon="4.46484">
        <ele>1246.01</ele>
        <time>2018-10-15T11:32:21Z</time>
      </trkpt>
      <trkpt lat="45.28403" lon="4.46485">
        <ele>1247.45</ele>
        <time>2018-10-15T11:32:40Z</time>
      </trkpt>
      <trkpt lat="45.28418" lon="4.46483">
        <ele>1248.41</ele>
        <time>2018-10-15T11:33:00Z</time>
      </trkpt>
      <trkpt lat="45.28432" lon="4.46482">
        <ele>1249.37</ele>
        <time>2018-10-15T11:33:18Z</time>
      </trkpt>
      <trkpt lat="45.28452" lon="4.46483">
        <ele>1249.85</ele>
        <time>2018-10-15T11:33:39Z</time>
      </trkpt>
      <trkpt lat="45.28463" lon="4.46487">
        <ele>1249.85</ele>
        <time>2018-10-15T11:33:58Z</time>
      </trkpt>
      <trkpt lat="45.28479" lon="4.46486">
        <ele>1251.29</ele>
        <time>2018-10-15T11:34:13Z</time>
      </trkpt>
      <trkpt lat="45.285" lon="4.46492">
        <ele>1251.29</ele>
        <time>2018-10-15T11:34:35Z</time>
      </trkpt>
      <trkpt lat="45.2851" lon="4.46494">
        <ele>1249.85</ele>
        <time>2018-10-15T11:34:54Z</time>
      </trkpt>
      <trkpt lat="45.28515" lon="4.46508">
        <ele>1251.29</ele>
        <time>2018-10-15T11:35:22Z</time>
      </trkpt>
      <trkpt lat="45.28521" lon="4.46531">
        <ele>1252.25</ele>
        <time>2018-10-15T11:35:42Z</time>
      </trkpt>
      <trkpt lat="45.28525" lon="4.46549">
        <ele>1252.74</ele>
        <time>2018-10-15T11:36:01Z</time>
      </trkpt>
      <trkpt lat="45.28527" lon="4.46583">
        <ele>1254.66</ele>
        <time>2018-10-15T11:36:25Z</time>
      </trkpt>
      <trkpt lat="45.28526" lon="4.466">
        <ele>1254.66</ele>
        <time>2018-10-15T11:36:50Z</time>
      </trkpt>
      <trkpt lat="45.28527" lon="4.46596">
        <ele>1255.14</ele>
        <time>2018-10-15T11:37:25Z</time>
      </trkpt>
      <trkpt lat="45.28526" lon="4.46617">
        <ele>1256.1</ele>
        <time>2018-10-15T11:37:43Z</time>
      </trkpt>
      <trkpt lat="45.28523" lon="4.46641">
        <ele>1256.1</ele>
        <time>2018-10-15T11:38:03Z</time>
      </trkpt>
      <trkpt lat="45.28521" lon="4.46674">
        <ele>1257.06</ele>
        <time>2018-10-15T11:38:24Z</time>
      </trkpt>
      <trkpt lat="45.28518" lon="4.46703">
        <ele>1258.5</ele>
        <time>2018-10-15T11:38:47Z</time>
      </trkpt>
      <trkpt lat="45.28516" lon="4.46726">
        <ele>1259.46</ele>
        <time>2018-10-15T11:39:07Z</time>
      </trkpt>
      <trkpt lat="45.28514" lon="4.4675">
        <ele>1260.43</ele>
        <time>2018-10-15T11:39:25Z</time>
      </trkpt>
      <trkpt lat="45.2851" lon="4.46785">
        <ele>1260.91</ele>
        <time>2018-10-15T11:39:47Z</time>
      </trkpt>
      <trkpt lat="45.2851" lon="4.46808">
        <ele>1261.87</ele>
        <time>2018-10-15T11:40:06Z</time>
      </trkpt>
      <trkpt lat="45.28508" lon="4.46833">
        <ele>1262.83</ele>
        <time>2018-10-15T11:40:27Z</time>
      </trkpt>
      <trkpt lat="45.28509" lon="4.46862">
        <ele>1263.31</ele>
        <time>2018-10-15T11:40:49Z</time>
      </trkpt>
      <trkpt lat="45.28506" lon="4.46891">
        <ele>1264.27</ele>
        <time>2018-10-15T11:41:09Z</time>
      </trkpt>
      <trkpt lat="45.28506" lon="4.46923">
        <ele>1262.83</ele>
        <time>2018-10-15T11:41:30Z</time>
      </trkpt>
      <trkpt lat="45.28513" lon="4.4695">
        <ele>1262.83</ele>
        <time>2018-10-15T11:41:49Z</time>
      </trkpt>
      <trkpt lat="45.2852" lon="4.46975">
        <ele>1263.31</ele>
        <time>2018-10-15T11:42:09Z</time>
      </trkpt>
      <trkpt lat="45.28529" lon="4.46999">
        <ele>1264.27</ele>
        <time>2018-10-15T11:42:29Z</time>
      </trkpt>
      <trkpt lat="45.28537" lon="4.47023">
        <ele>1264.27</ele>
        <time>2018-10-15T11:42:50Z</time>
      </trkpt>
      <trkpt lat="45.28545" lon="4.47052">
        <ele>1264.75</ele>
        <time>2018-10-15T11:43:09Z</time>
      </trkpt>
      <trkpt lat="45.28554" lon="4.47073">
        <ele>1266.19</ele>
        <time>2018-10-15T11:43:29Z</time>
      </trkpt>
      <trkpt lat="45.28566" lon="4.47098">
        <ele>1266.67</ele>
        <time>2018-10-15T11:43:49Z</time>
      </trkpt>
      <trkpt lat="45.28576" lon="4.47125">
        <ele>1266.19</ele>
        <time>2018-10-15T11:44:10Z</time>
      </trkpt>
      <trkpt lat="45.28585" lon="4.47148">
        <ele>1266.19</ele>
        <time>2018-10-15T11:44:28Z</time>
      </trkpt>
      <trkpt lat="45.28587" lon="4.47151">
        <ele>1266.67</ele>
        <time>2018-10-15T11:44:30Z</time>
      </trkpt>
      <trkpt lat="45.28599" lon="4.47168">
        <ele>1266.67</ele>
        <time>2018-10-15T11:44:49Z</time>
      </trkpt>
      <trkpt lat="45.28599" lon="4.47172">
        <ele>1266.67</ele>
        <time>2018-10-15T11:45:11Z</time>
      </trkpt>
      <trkpt lat="45.28601" lon="4.47166">
        <ele>1266.67</ele>
        <time>2018-10-15T11:45:20Z</time>
      </trkpt>
      <trkpt lat="45.28604" lon="4.47143">
        <ele>1268.6</ele>
        <time>2018-10-15T11:45:36Z</time>
      </trkpt>
      <trkpt lat="45.28607" lon="4.47121">
        <ele>1270.04</ele>
        <time>2018-10-15T11:45:52Z</time>
      </trkpt>
      <trkpt lat="45.28612" lon="4.47099">
        <ele>1271.96</ele>
        <time>2018-10-15T11:46:08Z</time>
      </trkpt>
      <trkpt lat="45.28616" lon="4.47077">
        <ele>1273.4</ele>
        <time>2018-10-15T11:46:24Z</time>
      </trkpt>
      <trkpt lat="45.28617" lon="4.47058">
        <ele>1273.4</ele>
        <time>2018-10-15T11:46:39Z</time>
      </trkpt>
      <trkpt lat="45.28621" lon="4.47034">
        <ele>1274.85</ele>
        <time>2018-10-15T11:46:59Z</time>
      </trkpt>
      <trkpt lat="45.28628" lon="4.47013">
        <ele>1276.29</ele>
        <time>2018-10-15T11:47:15Z</time>
      </trkpt>
      <trkpt lat="45.2863" lon="4.47001">
        <ele>1277.25</ele>
        <time>2018-10-15T11:47:25Z</time>
      </trkpt>
      <trkpt lat="45.28639" lon="4.4698">
        <ele>1277.25</ele>
        <time>2018-10-15T11:47:44Z</time>
      </trkpt>
      <trkpt lat="45.2864" lon="4.46974">
        <ele>1278.69</ele>
        <time>2018-10-15T11:47:49Z</time>
      </trkpt>
      <trkpt lat="45.28646" lon="4.46953">
        <ele>1279.65</ele>
        <time>2018-10-15T11:48:06Z</time>
      </trkpt>
      <trkpt lat="45.28654" lon="4.46934">
        <ele>1280.61</ele>
        <time>2018-10-15T11:48:24Z</time>
      </trkpt>
      <trkpt lat="45.28662" lon="4.46913">
        <ele>1281.57</ele>
        <time>2018-10-15T11:48:41Z</time>
      </trkpt>
      <trkpt lat="45.28669" lon="4.46895">
        <ele>1281.09</ele>
        <time>2018-10-15T11:48:56Z</time>
      </trkpt>
      <trkpt lat="45.28677" lon="4.46878">
        <ele>1281.57</ele>
        <time>2018-10-15T11:49:12Z</time>
      </trkpt>
      <trkpt lat="45.2868" lon="4.4687">
        <ele>1279.65</ele>
        <time>2018-10-15T11:49:20Z</time>
      </trkpt>
      <trkpt lat="45.28683" lon="4.46861">
        <ele>1282.54</ele>
        <time>2018-10-15T11:49:27Z</time>
      </trkpt>
      <trkpt lat="45.28692" lon="4.46836">
        <ele>1282.54</ele>
        <time>2018-10-15T11:49:48Z</time>
      </trkpt>
      <trkpt lat="45.28695" lon="4.46828">
        <ele>1283.5</ele>
        <time>2018-10-15T11:49:54Z</time>
      </trkpt>
      <trkpt lat="45.28701" lon="4.46811">
        <ele>1283.98</ele>
        <time>2018-10-15T11:50:12Z</time>
      </trkpt>
      <trkpt lat="45.28711" lon="4.46794">
        <ele>1283.98</ele>
        <time>2018-10-15T11:50:27Z</time>
      </trkpt>
      <trkpt lat="45.28714" lon="4.46791">
        <ele>1283.5</ele>
        <time>2018-10-15T11:50:31Z</time>
      </trkpt>
      <trkpt lat="45.28728" lon="4.46771">
        <ele>1283.5</ele>
        <time>2018-10-15T11:50:49Z</time>
      </trkpt>
      <trkpt lat="45.2874" lon="4.4675">
        <ele>1283.02</ele>
        <time>2018-10-15T11:51:08Z</time>
      </trkpt>
      <trkpt lat="45.28757" lon="4.4673">
        <ele>1280.61</ele>
        <time>2018-10-15T11:51:29Z</time>
      </trkpt>
      <trkpt lat="45.28772" lon="4.46727">
        <ele>1279.65</ele>
        <time>2018-10-15T11:51:45Z</time>
      </trkpt>
      <trkpt lat="45.28788" lon="4.46743">
        <ele>1279.65</ele>
        <time>2018-10-15T11:52:04Z</time>
      </trkpt>
      <trkpt lat="45.28801" lon="4.46761">
        <ele>1279.65</ele>
        <time>2018-10-15T11:52:23Z</time>
      </trkpt>
      <trkpt lat="45.28812" lon="4.46781">
        <ele>1281.09</ele>
        <time>2018-10-15T11:52:42Z</time>
      </trkpt>
      <trkpt lat="45.2882" lon="4.46799">
        <ele>1281.57</ele>
        <time>2018-10-15T11:53:02Z</time>
      </trkpt>
      <trkpt lat="45.28823" lon="4.46807">
        <ele>1282.54</ele>
        <time>2018-10-15T11:53:19Z</time>
      </trkpt>
      <trkpt lat="45.28831" lon="4.46823">
        <ele>1283.5</ele>
        <time>2018-10-15T11:53:37Z</time>
      </trkpt>
      <trkpt lat="45.2884" lon="4.46839">
        <ele>1285.42</ele>
        <time>2018-10-15T11:53:54Z</time>
      </trkpt>
      <trkpt lat="45.28849" lon="4.46856">
        <ele>1287.34</ele>
        <time>2018-10-15T11:54:11Z</time>
      </trkpt>
      <trkpt lat="45.28858" lon="4.46873">
        <ele>1288.78</ele>
        <time>2018-10-15T11:54:28Z</time>
      </trkpt>
      <trkpt lat="45.28868" lon="4.46891">
        <ele>1289.27</ele>
        <time>2018-10-15T11:54:47Z</time>
      </trkpt>
      <trkpt lat="45.28877" lon="4.46909">
        <ele>1290.71</ele>
        <time>2018-10-15T11:55:04Z</time>
      </trkpt>
      <trkpt lat="45.28888" lon="4.46926">
        <ele>1293.11</ele>
        <time>2018-10-15T11:55:22Z</time>
      </trkpt>
      <trkpt lat="45.28897" lon="4.46939">
        <ele>1293.11</ele>
        <time>2018-10-15T11:55:38Z</time>
      </trkpt>
      <trkpt lat="45.28906" lon="4.46954">
        <ele>1295.03</ele>
        <time>2018-10-15T11:55:54Z</time>
      </trkpt>
      <trkpt lat="45.28915" lon="4.46967">
        <ele>1297.44</ele>
        <time>2018-10-15T11:56:10Z</time>
      </trkpt>
      <trkpt lat="45.2892" lon="4.46987">
        <ele>1298.88</ele>
        <time>2018-10-15T11:56:26Z</time>
      </trkpt>
      <trkpt lat="45.28921" lon="4.47014">
        <ele>1297.44</ele>
        <time>2018-10-15T11:56:45Z</time>
      </trkpt>
      <trkpt lat="45.28922" lon="4.47016">
        <ele>1296.96</ele>
        <time>2018-10-15T11:56:46Z</time>
      </trkpt>
      <trkpt lat="45.28927" lon="4.47034">
        <ele>1295.99</ele>
        <time>2018-10-15T11:57:06Z</time>
      </trkpt>
      <trkpt lat="45.28931" lon="4.47036">
        <ele>1298.4</ele>
        <time>2018-10-15T11:57:23Z</time>
      </trkpt>
      <trkpt lat="45.28932" lon="4.47037">
        <ele>1296.96</ele>
        <time>2018-10-15T11:57:28Z</time>
      </trkpt>
      <trkpt lat="45.28936" lon="4.47038">
        <ele>1297.92</ele>
        <time>2018-10-15T11:57:41Z</time>
      </trkpt>
      <trkpt lat="45.28933" lon="4.47041">
        <ele>1297.44</ele>
        <time>2018-10-15T11:58:06Z</time>
      </trkpt>
      <trkpt lat="45.2894" lon="4.47044">
        <ele>1298.88</ele>
        <time>2018-10-15T11:58:20Z</time>
      </trkpt>
      <trkpt lat="45.28941" lon="4.47042">
        <ele>1297.92</ele>
        <time>2018-10-15T11:58:36Z</time>
      </trkpt>
      <trkpt lat="45.2894" lon="4.47042">
        <ele>1297.92</ele>
        <time>2018-10-15T11:58:37Z</time>
      </trkpt>
      <trkpt lat="45.28939" lon="4.47044">
        <ele>1294.55</ele>
        <time>2018-10-15T11:58:49Z</time>
      </trkpt>
      <trkpt lat="45.2894" lon="4.47044">
        <ele>1296.48</ele>
        <time>2018-10-15T11:58:53Z</time>
      </trkpt>
      <trkpt lat="45.2894" lon="4.47046">
        <ele>1299.36</ele>
        <time>2018-10-15T11:59:10Z</time>
      </trkpt>
      <trkpt lat="45.28939" lon="4.47048">
        <ele>1297.92</ele>
        <time>2018-10-15T11:59:27Z</time>
      </trkpt>
      <trkpt lat="45.28939" lon="4.47048">
        <ele>1298.4</ele>
        <time>2018-10-15T11:59:34Z</time>
      </trkpt>
      <trkpt lat="45.2894" lon="4.47045">
        <ele>1297.44</ele>
        <time>2018-10-15T11:59:56Z</time>
      </trkpt>
      <trkpt lat="45.2894" lon="4.47045">
        <ele>1298.88</ele>
        <time>2018-10-15T12:00:14Z</time>
      </trkpt>
      <trkpt lat="45.28944" lon="4.47044">
        <ele>1300.32</ele>
        <time>2018-10-15T12:00:40Z</time>
      </trkpt>
      <trkpt lat="45.28943" lon="4.47044">
        <ele>1298.88</ele>
        <time>2018-10-15T12:00:49Z</time>
      </trkpt>
      <trkpt lat="45.28943" lon="4.4704">
        <ele>1299.84</ele>
        <time>2018-10-15T12:01:12Z</time>
      </trkpt>
      <trkpt lat="45.28939" lon="4.47046">
        <ele>1299.36</ele>
        <time>2018-10-15T12:01:28Z</time>
      </trkpt>
      <trkpt lat="45.28939" lon="4.47047">
        <ele>1297.92</ele>
        <time>2018-10-15T12:01:49Z</time>
      </trkpt>
      <trkpt lat="45.28937" lon="4.47049">
        <ele>1298.88</ele>
        <time>2018-10-15T12:01:53Z</time>
      </trkpt>
      <trkpt lat="45.28936" lon="4.4706">
        <ele>1296.48</ele>
        <time>2018-10-15T12:02:02Z</time>
      </trkpt>
      <trkpt lat="45.28948" lon="4.47075">
        <ele>1297.44</ele>
        <time>2018-10-15T12:02:20Z</time>
      </trkpt>
      <trkpt lat="45.28954" lon="4.47079">
        <ele>1297.44</ele>
        <time>2018-10-15T12:02:35Z</time>
      </trkpt>
      <trkpt lat="45.28968" lon="4.47092">
        <ele>1296.48</ele>
        <time>2018-10-15T12:02:52Z</time>
      </trkpt>
      <trkpt lat="45.28978" lon="4.47095">
        <ele>1295.51</ele>
        <time>2018-10-15T12:03:11Z</time>
      </trkpt>
      <trkpt lat="45.28977" lon="4.47102">
        <ele>1294.07</ele>
        <time>2018-10-15T12:03:43Z</time>
      </trkpt>
      <trkpt lat="45.28981" lon="4.47114">
        <ele>1291.19</ele>
        <time>2018-10-15T12:03:50Z</time>
      </trkpt>
      <trkpt lat="45.28999" lon="4.47144">
        <ele>1290.23</ele>
        <time>2018-10-15T12:04:13Z</time>
      </trkpt>
      <trkpt lat="45.29005" lon="4.47154">
        <ele>1288.3</ele>
        <time>2018-10-15T12:04:21Z</time>
      </trkpt>
      <trkpt lat="45.29008" lon="4.47159">
        <ele>1286.86</ele>
        <time>2018-10-15T12:04:25Z</time>
      </trkpt>
      <trkpt lat="45.29028" lon="4.47196">
        <ele>1285.42</ele>
        <time>2018-10-15T12:04:51Z</time>
      </trkpt>
      <trkpt lat="45.29036" lon="4.47208">
        <ele>1284.94</ele>
        <time>2018-10-15T12:05:03Z</time>
      </trkpt>
      <trkpt lat="45.2905" lon="4.47232">
        <ele>1281.09</ele>
        <time>2018-10-15T12:05:26Z</time>
      </trkpt>
      <trkpt lat="45.29064" lon="4.47256">
        <ele>1280.13</ele>
        <time>2018-10-15T12:05:48Z</time>
      </trkpt>
      <trkpt lat="45.29075" lon="4.47274">
        <ele>1277.73</ele>
        <time>2018-10-15T12:06:04Z</time>
      </trkpt>
      <trkpt lat="45.29088" lon="4.47296">
        <ele>1277.25</ele>
        <time>2018-10-15T12:06:25Z</time>
      </trkpt>
      <trkpt lat="45.29099" lon="4.47315">
        <ele>1277.73</ele>
        <time>2018-10-15T12:06:45Z</time>
      </trkpt>
      <trkpt lat="45.29112" lon="4.47337">
        <ele>1276.29</ele>
        <time>2018-10-15T12:07:03Z</time>
      </trkpt>
      <trkpt lat="45.29125" lon="4.47363">
        <ele>1272.92</ele>
        <time>2018-10-15T12:07:24Z</time>
      </trkpt>
      <trkpt lat="45.29138" lon="4.47379">
        <ele>1271.48</ele>
        <time>2018-10-15T12:07:46Z</time>
      </trkpt>
      <trkpt lat="45.29152" lon="4.474">
        <ele>1268.6</ele>
        <time>2018-10-15T12:08:07Z</time>
      </trkpt>
      <trkpt lat="45.29164" lon="4.4742">
        <ele>1265.71</ele>
        <time>2018-10-15T12:08:28Z</time>
      </trkpt>
      <trkpt lat="45.29179" lon="4.47449">
        <ele>1261.87</ele>
        <time>2018-10-15T12:08:50Z</time>
      </trkpt>
      <trkpt lat="45.29192" lon="4.47471">
        <ele>1259.94</ele>
        <time>2018-10-15T12:09:12Z</time>
      </trkpt>
      <trkpt lat="45.29206" lon="4.47496">
        <ele>1257.06</ele>
        <time>2018-10-15T12:09:33Z</time>
      </trkpt>
      <trkpt lat="45.29219" lon="4.47522">
        <ele>1254.18</ele>
        <time>2018-10-15T12:09:54Z</time>
      </trkpt>
      <trkpt lat="45.29224" lon="4.47528">
        <ele>1252.25</ele>
        <time>2018-10-15T12:10:10Z</time>
      </trkpt>
      <trkpt lat="45.29232" lon="4.47543">
        <ele>1251.77</ele>
        <time>2018-10-15T12:10:24Z</time>
      </trkpt>
      <trkpt lat="45.29244" lon="4.47565">
        <ele>1250.33</ele>
        <time>2018-10-15T12:10:45Z</time>
      </trkpt>
      <trkpt lat="45.29248" lon="4.47571">
        <ele>1248.89</ele>
        <time>2018-10-15T12:10:50Z</time>
      </trkpt>
      <trkpt lat="45.29262" lon="4.47604">
        <ele>1246.97</ele>
        <time>2018-10-15T12:11:14Z</time>
      </trkpt>
      <trkpt lat="45.29269" lon="4.47622">
        <ele>1246.01</ele>
        <time>2018-10-15T12:11:33Z</time>
      </trkpt>
      <trkpt lat="45.29274" lon="4.47629">
        <ele>1244.56</ele>
        <time>2018-10-15T12:11:49Z</time>
      </trkpt>
      <trkpt lat="45.29284" lon="4.47655">
        <ele>1242.16</ele>
        <time>2018-10-15T12:12:10Z</time>
      </trkpt>
      <trkpt lat="45.29295" lon="4.47675">
        <ele>1242.16</ele>
        <time>2018-10-15T12:12:27Z</time>
      </trkpt>
      <trkpt lat="45.29306" lon="4.47693">
        <ele>1239.76</ele>
        <time>2018-10-15T12:12:45Z</time>
      </trkpt>
      <trkpt lat="45.29318" lon="4.47711">
        <ele>1239.28</ele>
        <time>2018-10-15T12:13:03Z</time>
      </trkpt>
      <trkpt lat="45.29329" lon="4.47729">
        <ele>1237.35</ele>
        <time>2018-10-15T12:13:20Z</time>
      </trkpt>
      <trkpt lat="45.29344" lon="4.4775">
        <ele>1235.91</ele>
        <time>2018-10-15T12:13:40Z</time>
      </trkpt>
      <trkpt lat="45.29357" lon="4.4777">
        <ele>1233.99</ele>
        <time>2018-10-15T12:14:00Z</time>
      </trkpt>
      <trkpt lat="45.29368" lon="4.47786">
        <ele>1231.59</ele>
        <time>2018-10-15T12:14:19Z</time>
      </trkpt>
      <trkpt lat="45.29376" lon="4.47807">
        <ele>1228.22</ele>
        <time>2018-10-15T12:14:36Z</time>
      </trkpt>
      <trkpt lat="45.29383" lon="4.47824">
        <ele>1225.82</ele>
        <time>2018-10-15T12:14:54Z</time>
      </trkpt>
      <trkpt lat="45.29389" lon="4.47848">
        <ele>1222.45</ele>
        <time>2018-10-15T12:15:10Z</time>
      </trkpt>
      <trkpt lat="45.29394" lon="4.47867">
        <ele>1220.05</ele>
        <time>2018-10-15T12:15:29Z</time>
      </trkpt>
      <trkpt lat="45.29394" lon="4.47887">
        <ele>1217.17</ele>
        <time>2018-10-15T12:15:49Z</time>
      </trkpt>
      <trkpt lat="45.29386" lon="4.47919">
        <ele>1215.24</ele>
        <time>2018-10-15T12:16:09Z</time>
      </trkpt>
      <trkpt lat="45.29379" lon="4.47943">
        <ele>1214.76</ele>
        <time>2018-10-15T12:16:26Z</time>
      </trkpt>
      <trkpt lat="45.29374" lon="4.47969">
        <ele>1213.8</ele>
        <time>2018-10-15T12:16:46Z</time>
      </trkpt>
      <trkpt lat="45.29372" lon="4.47989">
        <ele>1210.44</ele>
        <time>2018-10-15T12:17:01Z</time>
      </trkpt>
      <trkpt lat="45.29373" lon="4.47992">
        <ele>1209.48</ele>
        <time>2018-10-15T12:17:03Z</time>
      </trkpt>
      <trkpt lat="45.29374" lon="4.47997">
        <ele>1213.32</ele>
        <time>2018-10-15T12:17:07Z</time>
      </trkpt>
      <trkpt lat="45.29376" lon="4.48007">
        <ele>1210.44</ele>
        <time>2018-10-15T12:17:14Z</time>
      </trkpt>
      <trkpt lat="45.29379" lon="4.48019">
        <ele>1206.59</ele>
        <time>2018-10-15T12:17:25Z</time>
      </trkpt>
      <trkpt lat="45.29376" lon="4.48044">
        <ele>1205.63</ele>
        <time>2018-10-15T12:17:43Z</time>
      </trkpt>
      <trkpt lat="45.29374" lon="4.48051">
        <ele>1205.63</ele>
        <time>2018-10-15T12:17:47Z</time>
      </trkpt>
      <trkpt lat="45.29364" lon="4.4807">
        <ele>1204.67</ele>
        <time>2018-10-15T12:18:06Z</time>
      </trkpt>
      <trkpt lat="45.29363" lon="4.48067">
        <ele>1204.67</ele>
        <time>2018-10-15T12:18:30Z</time>
      </trkpt>
      <trkpt lat="45.29362" lon="4.48071">
        <ele>1205.63</ele>
        <time>2018-10-15T12:18:57Z</time>
      </trkpt>
      <trkpt lat="45.29354" lon="4.48089">
        <ele>1204.67</ele>
        <time>2018-10-15T12:19:14Z</time>
      </trkpt>
      <trkpt lat="45.29353" lon="4.48087">
        <ele>1204.67</ele>
        <time>2018-10-15T12:19:35Z</time>
      </trkpt>
      <trkpt lat="45.29354" lon="4.48085">
        <ele>1206.11</ele>
        <time>2018-10-15T12:19:56Z</time>
      </trkpt>
      <trkpt lat="45.29351" lon="4.48084">
        <ele>1205.63</ele>
        <time>2018-10-15T12:20:23Z</time>
      </trkpt>
      <trkpt lat="45.29351" lon="4.48082">
        <ele>1205.63</ele>
        <time>2018-10-15T12:20:54Z</time>
      </trkpt>
      <trkpt lat="45.2935" lon="4.48081">
        <ele>1206.11</ele>
        <time>2018-10-15T12:21:15Z</time>
      </trkpt>
    </trkseg>
  </trk>
</gpx>